<?xml version="1.0" encoding="UTF-8" standalone="no" ?>
<gpx xmlns="http://www.topografix.com/GPX/1/1" xmlns:xsi="http://www.w3.org/2001/XMLSchema-instance" xsi:schemaLocation="http://www.topografix.com/GPX/1/1 http://www.topografix.com/GPX/1/1/gpx.xsd" version="1.1" creator="VisuGPX - https://www.visugpx.com">
  <metadata>
    <name>ELIZONDO ARGIBEL 190722</name>
    <desc><![CDATA[
<p>Type: Indéfini<br/>Heure de départ: 09:37 19 juil. 2022<br/>Heure d'arrivée: 13:47 19 juil. 2022<br/>Distance: 26,4 km (04:09)<br/>Temps déplacement: 03:14<br/>Vitesse moyenne: 6,35 km/h<br/>Vitesse moyenne mouv.: 8,17 km/h<br/>Vitesse Max.: 37,82 km/h<br/>Altitude minimale: 186 m<br/>Altitude maximale: 957 m<br/>Vitesse de montée: 481,1 m/h<br/>Vitesse de descente: 1408,5 m/h<br/>Gain d'altitude: 1038 m<br/>Perte d'altitude: 1054 m<br/>Temps de montée: 02:09<br/>Temps de descente: 00:44<br/></p><hr align="center" width="480" style="height: 2px; width: 517px"/>]]></desc>
  </metadata>
  <trk>
    <name><![CDATA[ELIZONDO ARGIBEL 190722]]></name>
    <desc><![CDATA[<p>Type: Indéfini<br/>Heure de départ: 09:37 19 juil. 2022<br/>Heure d'arrivée: 13:47 19 juil. 2022<br/>Distance: 26,4 km (04:09)<br/>Temps déplacement: 03:14<br/>Vitesse moyenne: 6,35 km/h<br/>Vitesse moyenne mouv.: 8,17 km/h<br/>Vitesse Max.: 37,82 km/h<br/>Altitude minimale: 186 m<br/>Altitude maximale: 957 m<br/>Vitesse de montée: 481,1 m/h<br/>Vitesse de descente: 1408,5 m/h<br/>Gain d'altitude: 1038 m<br/>Perte d'altitude: 1054 m<br/>Temps de montée: 02:09<br/>Temps de descente: 00:44<br/></p><hr align="center" width="480" style="height: 2px; width: 517px"/>]]></desc>
    <trkseg>
      <trkpt lat="43.14786" lon="-1.51727">
        <ele>199.8</ele>
        <time>2022-07-19T07:37:46Z</time>
      </trkpt>
      <trkpt lat="43.14786" lon="-1.51727">
        <ele>199.8</ele>
        <time>2022-07-19T07:37:51Z</time>
      </trkpt>
      <trkpt lat="43.14794" lon="-1.51749">
        <ele>200.2</ele>
        <time>2022-07-19T07:41:20Z</time>
      </trkpt>
      <trkpt lat="43.14787" lon="-1.51773">
        <ele>199.1</ele>
        <time>2022-07-19T07:41:27Z</time>
      </trkpt>
      <trkpt lat="43.14776" lon="-1.51794">
        <ele>198.9</ele>
        <time>2022-07-19T07:41:36Z</time>
      </trkpt>
      <trkpt lat="43.14766" lon="-1.51816">
        <ele>200.3</ele>
        <time>2022-07-19T07:41:44Z</time>
      </trkpt>
      <trkpt lat="43.14756" lon="-1.5184">
        <ele>202.5</ele>
        <time>2022-07-19T07:41:51Z</time>
      </trkpt>
      <trkpt lat="43.14735" lon="-1.51837">
        <ele>203.1</ele>
        <time>2022-07-19T07:42:01Z</time>
      </trkpt>
      <trkpt lat="43.1472" lon="-1.51819">
        <ele>203.1</ele>
        <time>2022-07-19T07:42:07Z</time>
      </trkpt>
      <trkpt lat="43.14704" lon="-1.51801">
        <ele>198.9</ele>
        <time>2022-07-19T07:42:14Z</time>
      </trkpt>
      <trkpt lat="43.14692" lon="-1.51782">
        <ele>199.7</ele>
        <time>2022-07-19T07:42:19Z</time>
      </trkpt>
      <trkpt lat="43.1468" lon="-1.51762">
        <ele>202.4</ele>
        <time>2022-07-19T07:42:24Z</time>
      </trkpt>
      <trkpt lat="43.1467" lon="-1.5174">
        <ele>202.8</ele>
        <time>2022-07-19T07:42:30Z</time>
      </trkpt>
      <trkpt lat="43.14662" lon="-1.51717">
        <ele>202.5</ele>
        <time>2022-07-19T07:42:39Z</time>
      </trkpt>
      <trkpt lat="43.14646" lon="-1.5173">
        <ele>202.5</ele>
        <time>2022-07-19T07:42:49Z</time>
      </trkpt>
      <trkpt lat="43.14631" lon="-1.5175">
        <ele>202.3</ele>
        <time>2022-07-19T07:42:57Z</time>
      </trkpt>
      <trkpt lat="43.14613" lon="-1.51763">
        <ele>201.3</ele>
        <time>2022-07-19T07:43:04Z</time>
      </trkpt>
      <trkpt lat="43.14598" lon="-1.51779">
        <ele>202.7</ele>
        <time>2022-07-19T07:43:11Z</time>
      </trkpt>
      <trkpt lat="43.14584" lon="-1.51801">
        <ele>202.1</ele>
        <time>2022-07-19T07:43:18Z</time>
      </trkpt>
      <trkpt lat="43.14572" lon="-1.51824">
        <ele>204.2</ele>
        <time>2022-07-19T07:43:25Z</time>
      </trkpt>
      <trkpt lat="43.14558" lon="-1.51842">
        <ele>204.8</ele>
        <time>2022-07-19T07:43:32Z</time>
      </trkpt>
      <trkpt lat="43.14542" lon="-1.51856">
        <ele>203.8</ele>
        <time>2022-07-19T07:43:39Z</time>
      </trkpt>
      <trkpt lat="43.14534" lon="-1.51831">
        <ele>202.7</ele>
        <time>2022-07-19T07:43:51Z</time>
      </trkpt>
      <trkpt lat="43.14522" lon="-1.51811">
        <ele>208</ele>
        <time>2022-07-19T07:44:02Z</time>
      </trkpt>
      <trkpt lat="43.14539" lon="-1.51801">
        <ele>215</ele>
        <time>2022-07-19T07:45:32Z</time>
      </trkpt>
      <trkpt lat="43.14556" lon="-1.51786">
        <ele>212.4</ele>
        <time>2022-07-19T07:45:39Z</time>
      </trkpt>
      <trkpt lat="43.14569" lon="-1.51768">
        <ele>211.1</ele>
        <time>2022-07-19T07:45:45Z</time>
      </trkpt>
      <trkpt lat="43.14581" lon="-1.5175">
        <ele>205.8</ele>
        <time>2022-07-19T07:45:51Z</time>
      </trkpt>
      <trkpt lat="43.14573" lon="-1.51728">
        <ele>202.5</ele>
        <time>2022-07-19T07:45:57Z</time>
      </trkpt>
      <trkpt lat="43.1456" lon="-1.5171">
        <ele>198.7</ele>
        <time>2022-07-19T07:46:03Z</time>
      </trkpt>
      <trkpt lat="43.14546" lon="-1.5169">
        <ele>199.6</ele>
        <time>2022-07-19T07:46:10Z</time>
      </trkpt>
      <trkpt lat="43.14531" lon="-1.51672">
        <ele>202.4</ele>
        <time>2022-07-19T07:46:17Z</time>
      </trkpt>
      <trkpt lat="43.14516" lon="-1.51656">
        <ele>202.5</ele>
        <time>2022-07-19T07:46:23Z</time>
      </trkpt>
      <trkpt lat="43.145" lon="-1.5164">
        <ele>203.1</ele>
        <time>2022-07-19T07:46:29Z</time>
      </trkpt>
      <trkpt lat="43.14486" lon="-1.51625">
        <ele>203.7</ele>
        <time>2022-07-19T07:46:35Z</time>
      </trkpt>
      <trkpt lat="43.14471" lon="-1.51605">
        <ele>204.5</ele>
        <time>2022-07-19T07:46:42Z</time>
      </trkpt>
      <trkpt lat="43.1446" lon="-1.51584">
        <ele>206.6</ele>
        <time>2022-07-19T07:46:49Z</time>
      </trkpt>
      <trkpt lat="43.14461" lon="-1.51558">
        <ele>207.7</ele>
        <time>2022-07-19T07:47:03Z</time>
      </trkpt>
      <trkpt lat="43.14453" lon="-1.51535">
        <ele>208.3</ele>
        <time>2022-07-19T07:47:11Z</time>
      </trkpt>
      <trkpt lat="43.14433" lon="-1.51524">
        <ele>203.7</ele>
        <time>2022-07-19T07:47:18Z</time>
      </trkpt>
      <trkpt lat="43.14416" lon="-1.5151">
        <ele>203.7</ele>
        <time>2022-07-19T07:47:25Z</time>
      </trkpt>
      <trkpt lat="43.14399" lon="-1.51497">
        <ele>202.6</ele>
        <time>2022-07-19T07:47:32Z</time>
      </trkpt>
      <trkpt lat="43.14382" lon="-1.51485">
        <ele>202.4</ele>
        <time>2022-07-19T07:47:40Z</time>
      </trkpt>
      <trkpt lat="43.14365" lon="-1.51472">
        <ele>203.9</ele>
        <time>2022-07-19T07:47:50Z</time>
      </trkpt>
      <trkpt lat="43.14349" lon="-1.5146">
        <ele>204.4</ele>
        <time>2022-07-19T07:48:01Z</time>
      </trkpt>
      <trkpt lat="43.14333" lon="-1.51447">
        <ele>208.7</ele>
        <time>2022-07-19T07:48:13Z</time>
      </trkpt>
      <trkpt lat="43.14315" lon="-1.51444">
        <ele>209.6</ele>
        <time>2022-07-19T07:48:28Z</time>
      </trkpt>
      <trkpt lat="43.14296" lon="-1.51437">
        <ele>212.6</ele>
        <time>2022-07-19T07:48:41Z</time>
      </trkpt>
      <trkpt lat="43.14278" lon="-1.51428">
        <ele>212.9</ele>
        <time>2022-07-19T07:48:52Z</time>
      </trkpt>
      <trkpt lat="43.1426" lon="-1.51423">
        <ele>213.4</ele>
        <time>2022-07-19T07:49:02Z</time>
      </trkpt>
      <trkpt lat="43.14241" lon="-1.51415">
        <ele>217.2</ele>
        <time>2022-07-19T07:49:11Z</time>
      </trkpt>
      <trkpt lat="43.14224" lon="-1.51402">
        <ele>218.9</ele>
        <time>2022-07-19T07:49:20Z</time>
      </trkpt>
      <trkpt lat="43.1421" lon="-1.51384">
        <ele>217.4</ele>
        <time>2022-07-19T07:49:28Z</time>
      </trkpt>
      <trkpt lat="43.14205" lon="-1.51358">
        <ele>219.4</ele>
        <time>2022-07-19T07:49:35Z</time>
      </trkpt>
      <trkpt lat="43.14202" lon="-1.51333">
        <ele>217.3</ele>
        <time>2022-07-19T07:49:43Z</time>
      </trkpt>
      <trkpt lat="43.14201" lon="-1.51308">
        <ele>214.7</ele>
        <time>2022-07-19T07:49:51Z</time>
      </trkpt>
      <trkpt lat="43.142" lon="-1.5128">
        <ele>216.5</ele>
        <time>2022-07-19T07:49:59Z</time>
      </trkpt>
      <trkpt lat="43.14199" lon="-1.51252">
        <ele>219.3</ele>
        <time>2022-07-19T07:50:07Z</time>
      </trkpt>
      <trkpt lat="43.14197" lon="-1.51227">
        <ele>221.6</ele>
        <time>2022-07-19T07:50:15Z</time>
      </trkpt>
      <trkpt lat="43.14194" lon="-1.51201">
        <ele>220.6</ele>
        <time>2022-07-19T07:50:26Z</time>
      </trkpt>
      <trkpt lat="43.14188" lon="-1.51176">
        <ele>229.5</ele>
        <time>2022-07-19T07:50:38Z</time>
      </trkpt>
      <trkpt lat="43.1418" lon="-1.51153">
        <ele>232.9</ele>
        <time>2022-07-19T07:50:48Z</time>
      </trkpt>
      <trkpt lat="43.1417" lon="-1.51133">
        <ele>237.6</ele>
        <time>2022-07-19T07:50:59Z</time>
      </trkpt>
      <trkpt lat="43.14158" lon="-1.51111">
        <ele>241.4</ele>
        <time>2022-07-19T07:51:11Z</time>
      </trkpt>
      <trkpt lat="43.14146" lon="-1.51091">
        <ele>244.1</ele>
        <time>2022-07-19T07:51:26Z</time>
      </trkpt>
      <trkpt lat="43.14134" lon="-1.51071">
        <ele>245</ele>
        <time>2022-07-19T07:51:42Z</time>
      </trkpt>
      <trkpt lat="43.1412" lon="-1.51052">
        <ele>246.1</ele>
        <time>2022-07-19T07:51:56Z</time>
      </trkpt>
      <trkpt lat="43.14107" lon="-1.51033">
        <ele>248.5</ele>
        <time>2022-07-19T07:52:07Z</time>
      </trkpt>
      <trkpt lat="43.14095" lon="-1.51014">
        <ele>247.6</ele>
        <time>2022-07-19T07:52:17Z</time>
      </trkpt>
      <trkpt lat="43.14082" lon="-1.50997">
        <ele>248.6</ele>
        <time>2022-07-19T07:52:26Z</time>
      </trkpt>
      <trkpt lat="43.14065" lon="-1.50984">
        <ele>249.9</ele>
        <time>2022-07-19T07:52:35Z</time>
      </trkpt>
      <trkpt lat="43.14045" lon="-1.50981">
        <ele>249.1</ele>
        <time>2022-07-19T07:52:44Z</time>
      </trkpt>
      <trkpt lat="43.14026" lon="-1.50983">
        <ele>250.1</ele>
        <time>2022-07-19T07:52:52Z</time>
      </trkpt>
      <trkpt lat="43.14007" lon="-1.50985">
        <ele>252.3</ele>
        <time>2022-07-19T07:53:00Z</time>
      </trkpt>
      <trkpt lat="43.13988" lon="-1.50986">
        <ele>252.3</ele>
        <time>2022-07-19T07:53:07Z</time>
      </trkpt>
      <trkpt lat="43.13969" lon="-1.50983">
        <ele>252.9</ele>
        <time>2022-07-19T07:53:14Z</time>
      </trkpt>
      <trkpt lat="43.13952" lon="-1.50978">
        <ele>252.6</ele>
        <time>2022-07-19T07:53:21Z</time>
      </trkpt>
      <trkpt lat="43.13932" lon="-1.50973">
        <ele>252.5</ele>
        <time>2022-07-19T07:53:29Z</time>
      </trkpt>
      <trkpt lat="43.13914" lon="-1.50971">
        <ele>250.8</ele>
        <time>2022-07-19T07:53:37Z</time>
      </trkpt>
      <trkpt lat="43.13896" lon="-1.50975">
        <ele>251.6</ele>
        <time>2022-07-19T07:53:45Z</time>
      </trkpt>
      <trkpt lat="43.13876" lon="-1.5098">
        <ele>255.6</ele>
        <time>2022-07-19T07:53:54Z</time>
      </trkpt>
      <trkpt lat="43.13858" lon="-1.5098">
        <ele>260.8</ele>
        <time>2022-07-19T07:54:05Z</time>
      </trkpt>
      <trkpt lat="43.1384" lon="-1.50989">
        <ele>261.4</ele>
        <time>2022-07-19T07:54:18Z</time>
      </trkpt>
      <trkpt lat="43.13846" lon="-1.51013">
        <ele>266.5</ele>
        <time>2022-07-19T07:54:33Z</time>
      </trkpt>
      <trkpt lat="43.13854" lon="-1.51036">
        <ele>266.9</ele>
        <time>2022-07-19T07:54:48Z</time>
      </trkpt>
      <trkpt lat="43.13855" lon="-1.51062">
        <ele>270.2</ele>
        <time>2022-07-19T07:55:02Z</time>
      </trkpt>
      <trkpt lat="43.13848" lon="-1.51085">
        <ele>274.3</ele>
        <time>2022-07-19T07:55:16Z</time>
      </trkpt>
      <trkpt lat="43.13841" lon="-1.51108">
        <ele>274.7</ele>
        <time>2022-07-19T07:55:32Z</time>
      </trkpt>
      <trkpt lat="43.13823" lon="-1.51117">
        <ele>280.2</ele>
        <time>2022-07-19T07:55:47Z</time>
      </trkpt>
      <trkpt lat="43.13816" lon="-1.51092">
        <ele>280.3</ele>
        <time>2022-07-19T07:56:03Z</time>
      </trkpt>
      <trkpt lat="43.13809" lon="-1.51069">
        <ele>280.1</ele>
        <time>2022-07-19T07:56:15Z</time>
      </trkpt>
      <trkpt lat="43.13797" lon="-1.51049">
        <ele>282</ele>
        <time>2022-07-19T07:56:27Z</time>
      </trkpt>
      <trkpt lat="43.13784" lon="-1.5103">
        <ele>286.1</ele>
        <time>2022-07-19T07:56:38Z</time>
      </trkpt>
      <trkpt lat="43.13771" lon="-1.51012">
        <ele>289.4</ele>
        <time>2022-07-19T07:56:48Z</time>
      </trkpt>
      <trkpt lat="43.13758" lon="-1.50994">
        <ele>289.9</ele>
        <time>2022-07-19T07:57:00Z</time>
      </trkpt>
      <trkpt lat="43.13745" lon="-1.50974">
        <ele>292.8</ele>
        <time>2022-07-19T07:57:13Z</time>
      </trkpt>
      <trkpt lat="43.13731" lon="-1.50957">
        <ele>295.4</ele>
        <time>2022-07-19T07:57:28Z</time>
      </trkpt>
      <trkpt lat="43.13713" lon="-1.50952">
        <ele>298.2</ele>
        <time>2022-07-19T07:57:43Z</time>
      </trkpt>
      <trkpt lat="43.13694" lon="-1.50955">
        <ele>306.7</ele>
        <time>2022-07-19T07:57:56Z</time>
      </trkpt>
      <trkpt lat="43.13677" lon="-1.50965">
        <ele>308.8</ele>
        <time>2022-07-19T07:58:07Z</time>
      </trkpt>
      <trkpt lat="43.13659" lon="-1.50976">
        <ele>308.8</ele>
        <time>2022-07-19T07:58:17Z</time>
      </trkpt>
      <trkpt lat="43.13641" lon="-1.50985">
        <ele>311.1</ele>
        <time>2022-07-19T07:58:26Z</time>
      </trkpt>
      <trkpt lat="43.13623" lon="-1.50988">
        <ele>309</ele>
        <time>2022-07-19T07:58:34Z</time>
      </trkpt>
      <trkpt lat="43.13602" lon="-1.50986">
        <ele>306.2</ele>
        <time>2022-07-19T07:58:41Z</time>
      </trkpt>
      <trkpt lat="43.13584" lon="-1.50985">
        <ele>305.2</ele>
        <time>2022-07-19T07:58:46Z</time>
      </trkpt>
      <trkpt lat="43.13562" lon="-1.50985">
        <ele>305.6</ele>
        <time>2022-07-19T07:58:52Z</time>
      </trkpt>
      <trkpt lat="43.13542" lon="-1.50983">
        <ele>305.4</ele>
        <time>2022-07-19T07:58:58Z</time>
      </trkpt>
      <trkpt lat="43.13522" lon="-1.50975">
        <ele>304.8</ele>
        <time>2022-07-19T07:59:04Z</time>
      </trkpt>
      <trkpt lat="43.13507" lon="-1.5096">
        <ele>303.5</ele>
        <time>2022-07-19T07:59:09Z</time>
      </trkpt>
      <trkpt lat="43.13489" lon="-1.50943">
        <ele>302.8</ele>
        <time>2022-07-19T07:59:14Z</time>
      </trkpt>
      <trkpt lat="43.13475" lon="-1.50928">
        <ele>302.1</ele>
        <time>2022-07-19T07:59:18Z</time>
      </trkpt>
      <trkpt lat="43.13458" lon="-1.50914">
        <ele>302.5</ele>
        <time>2022-07-19T07:59:23Z</time>
      </trkpt>
      <trkpt lat="43.13444" lon="-1.50898">
        <ele>304.5</ele>
        <time>2022-07-19T07:59:30Z</time>
      </trkpt>
      <trkpt lat="43.1343" lon="-1.5088">
        <ele>306.2</ele>
        <time>2022-07-19T07:59:39Z</time>
      </trkpt>
      <trkpt lat="43.13423" lon="-1.50856">
        <ele>306.9</ele>
        <time>2022-07-19T07:59:48Z</time>
      </trkpt>
      <trkpt lat="43.13412" lon="-1.50834">
        <ele>308.1</ele>
        <time>2022-07-19T07:59:59Z</time>
      </trkpt>
      <trkpt lat="43.134" lon="-1.50815">
        <ele>310.6</ele>
        <time>2022-07-19T08:00:09Z</time>
      </trkpt>
      <trkpt lat="43.13387" lon="-1.50797">
        <ele>312.8</ele>
        <time>2022-07-19T08:00:19Z</time>
      </trkpt>
      <trkpt lat="43.13375" lon="-1.50778">
        <ele>313.6</ele>
        <time>2022-07-19T08:00:29Z</time>
      </trkpt>
      <trkpt lat="43.13361" lon="-1.50759">
        <ele>316.6</ele>
        <time>2022-07-19T08:00:40Z</time>
      </trkpt>
      <trkpt lat="43.13346" lon="-1.50741">
        <ele>320.4</ele>
        <time>2022-07-19T08:00:52Z</time>
      </trkpt>
      <trkpt lat="43.13331" lon="-1.50725">
        <ele>321.3</ele>
        <time>2022-07-19T08:01:04Z</time>
      </trkpt>
      <trkpt lat="43.13315" lon="-1.50713">
        <ele>322.7</ele>
        <time>2022-07-19T08:01:16Z</time>
      </trkpt>
      <trkpt lat="43.13297" lon="-1.50706">
        <ele>324.7</ele>
        <time>2022-07-19T08:01:28Z</time>
      </trkpt>
      <trkpt lat="43.13279" lon="-1.507">
        <ele>324</ele>
        <time>2022-07-19T08:01:40Z</time>
      </trkpt>
      <trkpt lat="43.13262" lon="-1.50692">
        <ele>324.4</ele>
        <time>2022-07-19T08:01:54Z</time>
      </trkpt>
      <trkpt lat="43.13244" lon="-1.50682">
        <ele>325.9</ele>
        <time>2022-07-19T08:02:07Z</time>
      </trkpt>
      <trkpt lat="43.13227" lon="-1.50672">
        <ele>330.7</ele>
        <time>2022-07-19T08:02:19Z</time>
      </trkpt>
      <trkpt lat="43.13209" lon="-1.50661">
        <ele>331.8</ele>
        <time>2022-07-19T08:02:29Z</time>
      </trkpt>
      <trkpt lat="43.13192" lon="-1.50648">
        <ele>334.9</ele>
        <time>2022-07-19T08:02:37Z</time>
      </trkpt>
      <trkpt lat="43.13175" lon="-1.50637">
        <ele>336.4</ele>
        <time>2022-07-19T08:02:44Z</time>
      </trkpt>
      <trkpt lat="43.13157" lon="-1.50625">
        <ele>334.5</ele>
        <time>2022-07-19T08:02:49Z</time>
      </trkpt>
      <trkpt lat="43.1314" lon="-1.50612">
        <ele>334.1</ele>
        <time>2022-07-19T08:02:53Z</time>
      </trkpt>
      <trkpt lat="43.13121" lon="-1.50597">
        <ele>334.5</ele>
        <time>2022-07-19T08:02:58Z</time>
      </trkpt>
      <trkpt lat="43.13105" lon="-1.50584">
        <ele>334.3</ele>
        <time>2022-07-19T08:03:03Z</time>
      </trkpt>
      <trkpt lat="43.13088" lon="-1.50571">
        <ele>335.9</ele>
        <time>2022-07-19T08:03:10Z</time>
      </trkpt>
      <trkpt lat="43.13071" lon="-1.5056">
        <ele>337.3</ele>
        <time>2022-07-19T08:03:18Z</time>
      </trkpt>
      <trkpt lat="43.13053" lon="-1.5055">
        <ele>337.2</ele>
        <time>2022-07-19T08:03:27Z</time>
      </trkpt>
      <trkpt lat="43.13036" lon="-1.50543">
        <ele>337.9</ele>
        <time>2022-07-19T08:03:37Z</time>
      </trkpt>
      <trkpt lat="43.13021" lon="-1.50525">
        <ele>341.3</ele>
        <time>2022-07-19T08:03:49Z</time>
      </trkpt>
      <trkpt lat="43.13007" lon="-1.50508">
        <ele>342.2</ele>
        <time>2022-07-19T08:04:02Z</time>
      </trkpt>
      <trkpt lat="43.12988" lon="-1.50506">
        <ele>346.2</ele>
        <time>2022-07-19T08:04:13Z</time>
      </trkpt>
      <trkpt lat="43.1297" lon="-1.50497">
        <ele>349.9</ele>
        <time>2022-07-19T08:04:25Z</time>
      </trkpt>
      <trkpt lat="43.12952" lon="-1.5049">
        <ele>351.2</ele>
        <time>2022-07-19T08:04:36Z</time>
      </trkpt>
      <trkpt lat="43.12933" lon="-1.50482">
        <ele>354.4</ele>
        <time>2022-07-19T08:04:47Z</time>
      </trkpt>
      <trkpt lat="43.12914" lon="-1.50483">
        <ele>355.4</ele>
        <time>2022-07-19T08:05:00Z</time>
      </trkpt>
      <trkpt lat="43.12896" lon="-1.50477">
        <ele>359.4</ele>
        <time>2022-07-19T08:05:14Z</time>
      </trkpt>
      <trkpt lat="43.12883" lon="-1.5046">
        <ele>360.3</ele>
        <time>2022-07-19T08:05:25Z</time>
      </trkpt>
      <trkpt lat="43.12866" lon="-1.50446">
        <ele>359.9</ele>
        <time>2022-07-19T08:05:34Z</time>
      </trkpt>
      <trkpt lat="43.12847" lon="-1.5044">
        <ele>358.8</ele>
        <time>2022-07-19T08:05:42Z</time>
      </trkpt>
      <trkpt lat="43.12829" lon="-1.50435">
        <ele>358.3</ele>
        <time>2022-07-19T08:05:49Z</time>
      </trkpt>
      <trkpt lat="43.12808" lon="-1.50432">
        <ele>359.6</ele>
        <time>2022-07-19T08:05:57Z</time>
      </trkpt>
      <trkpt lat="43.12789" lon="-1.50431">
        <ele>360.3</ele>
        <time>2022-07-19T08:06:04Z</time>
      </trkpt>
      <trkpt lat="43.12772" lon="-1.50418">
        <ele>362.8</ele>
        <time>2022-07-19T08:06:12Z</time>
      </trkpt>
      <trkpt lat="43.1276" lon="-1.50396">
        <ele>364.7</ele>
        <time>2022-07-19T08:06:21Z</time>
      </trkpt>
      <trkpt lat="43.12752" lon="-1.50373">
        <ele>368.3</ele>
        <time>2022-07-19T08:06:29Z</time>
      </trkpt>
      <trkpt lat="43.12744" lon="-1.50347">
        <ele>368</ele>
        <time>2022-07-19T08:06:38Z</time>
      </trkpt>
      <trkpt lat="43.12738" lon="-1.50322">
        <ele>368.9</ele>
        <time>2022-07-19T08:06:45Z</time>
      </trkpt>
      <trkpt lat="43.12729" lon="-1.50298">
        <ele>368.5</ele>
        <time>2022-07-19T08:06:51Z</time>
      </trkpt>
      <trkpt lat="43.12713" lon="-1.50283">
        <ele>367.2</ele>
        <time>2022-07-19T08:06:57Z</time>
      </trkpt>
      <trkpt lat="43.12697" lon="-1.50268">
        <ele>366.9</ele>
        <time>2022-07-19T08:07:03Z</time>
      </trkpt>
      <trkpt lat="43.1268" lon="-1.50255">
        <ele>367</ele>
        <time>2022-07-19T08:07:11Z</time>
      </trkpt>
      <trkpt lat="43.12663" lon="-1.50243">
        <ele>367.5</ele>
        <time>2022-07-19T08:07:19Z</time>
      </trkpt>
      <trkpt lat="43.12644" lon="-1.50238">
        <ele>369.8</ele>
        <time>2022-07-19T08:07:27Z</time>
      </trkpt>
      <trkpt lat="43.12624" lon="-1.50236">
        <ele>368.9</ele>
        <time>2022-07-19T08:07:34Z</time>
      </trkpt>
      <trkpt lat="43.12604" lon="-1.50231">
        <ele>368.4</ele>
        <time>2022-07-19T08:07:40Z</time>
      </trkpt>
      <trkpt lat="43.12586" lon="-1.50226">
        <ele>369.8</ele>
        <time>2022-07-19T08:07:45Z</time>
      </trkpt>
      <trkpt lat="43.12574" lon="-1.50207">
        <ele>375</ele>
        <time>2022-07-19T08:07:53Z</time>
      </trkpt>
      <trkpt lat="43.12564" lon="-1.50186">
        <ele>375.4</ele>
        <time>2022-07-19T08:08:03Z</time>
      </trkpt>
      <trkpt lat="43.12555" lon="-1.50162">
        <ele>376.8</ele>
        <time>2022-07-19T08:08:13Z</time>
      </trkpt>
      <trkpt lat="43.12546" lon="-1.50138">
        <ele>378.3</ele>
        <time>2022-07-19T08:08:23Z</time>
      </trkpt>
      <trkpt lat="43.12545" lon="-1.5011">
        <ele>377.1</ele>
        <time>2022-07-19T08:08:31Z</time>
      </trkpt>
      <trkpt lat="43.12549" lon="-1.50083">
        <ele>377.9</ele>
        <time>2022-07-19T08:08:39Z</time>
      </trkpt>
      <trkpt lat="43.12553" lon="-1.50057">
        <ele>380.2</ele>
        <time>2022-07-19T08:08:48Z</time>
      </trkpt>
      <trkpt lat="43.12555" lon="-1.50032">
        <ele>382.5</ele>
        <time>2022-07-19T08:08:58Z</time>
      </trkpt>
      <trkpt lat="43.12543" lon="-1.50011">
        <ele>381.2</ele>
        <time>2022-07-19T08:09:07Z</time>
      </trkpt>
      <trkpt lat="43.12526" lon="-1.49996">
        <ele>382.6</ele>
        <time>2022-07-19T08:09:16Z</time>
      </trkpt>
      <trkpt lat="43.12507" lon="-1.49989">
        <ele>383.3</ele>
        <time>2022-07-19T08:09:24Z</time>
      </trkpt>
      <trkpt lat="43.12489" lon="-1.49987">
        <ele>384.1</ele>
        <time>2022-07-19T08:09:30Z</time>
      </trkpt>
      <trkpt lat="43.12469" lon="-1.49985">
        <ele>384</ele>
        <time>2022-07-19T08:09:36Z</time>
      </trkpt>
      <trkpt lat="43.12451" lon="-1.49992">
        <ele>382.7</ele>
        <time>2022-07-19T08:09:41Z</time>
      </trkpt>
      <trkpt lat="43.1243" lon="-1.50001">
        <ele>381.5</ele>
        <time>2022-07-19T08:09:45Z</time>
      </trkpt>
      <trkpt lat="43.12411" lon="-1.50004">
        <ele>381.2</ele>
        <time>2022-07-19T08:09:48Z</time>
      </trkpt>
      <trkpt lat="43.12392" lon="-1.50008">
        <ele>381.1</ele>
        <time>2022-07-19T08:09:51Z</time>
      </trkpt>
      <trkpt lat="43.1237" lon="-1.50014">
        <ele>381.6</ele>
        <time>2022-07-19T08:09:55Z</time>
      </trkpt>
      <trkpt lat="43.1235" lon="-1.50021">
        <ele>381.8</ele>
        <time>2022-07-19T08:10:00Z</time>
      </trkpt>
      <trkpt lat="43.12332" lon="-1.50026">
        <ele>381.9</ele>
        <time>2022-07-19T08:10:06Z</time>
      </trkpt>
      <trkpt lat="43.12313" lon="-1.50029">
        <ele>383.2</ele>
        <time>2022-07-19T08:10:15Z</time>
      </trkpt>
      <trkpt lat="43.12295" lon="-1.50029">
        <ele>386.5</ele>
        <time>2022-07-19T08:10:25Z</time>
      </trkpt>
      <trkpt lat="43.12276" lon="-1.50031">
        <ele>389.9</ele>
        <time>2022-07-19T08:10:37Z</time>
      </trkpt>
      <trkpt lat="43.12258" lon="-1.50035">
        <ele>389</ele>
        <time>2022-07-19T08:10:50Z</time>
      </trkpt>
      <trkpt lat="43.12239" lon="-1.50037">
        <ele>394.4</ele>
        <time>2022-07-19T08:11:03Z</time>
      </trkpt>
      <trkpt lat="43.12221" lon="-1.50042">
        <ele>398.4</ele>
        <time>2022-07-19T08:11:15Z</time>
      </trkpt>
      <trkpt lat="43.12204" lon="-1.50048">
        <ele>402.4</ele>
        <time>2022-07-19T08:11:31Z</time>
      </trkpt>
      <trkpt lat="43.12186" lon="-1.50055">
        <ele>405.7</ele>
        <time>2022-07-19T08:11:49Z</time>
      </trkpt>
      <trkpt lat="43.12168" lon="-1.50064">
        <ele>409.7</ele>
        <time>2022-07-19T08:12:08Z</time>
      </trkpt>
      <trkpt lat="43.12151" lon="-1.50075">
        <ele>413.9</ele>
        <time>2022-07-19T08:12:27Z</time>
      </trkpt>
      <trkpt lat="43.12133" lon="-1.50085">
        <ele>416.2</ele>
        <time>2022-07-19T08:12:44Z</time>
      </trkpt>
      <trkpt lat="43.12116" lon="-1.50093">
        <ele>417.1</ele>
        <time>2022-07-19T08:12:59Z</time>
      </trkpt>
      <trkpt lat="43.12131" lon="-1.50108">
        <ele>420.5</ele>
        <time>2022-07-19T08:13:26Z</time>
      </trkpt>
      <trkpt lat="43.1215" lon="-1.50109">
        <ele>420.7</ele>
        <time>2022-07-19T08:13:39Z</time>
      </trkpt>
      <trkpt lat="43.12168" lon="-1.50112">
        <ele>420</ele>
        <time>2022-07-19T08:13:52Z</time>
      </trkpt>
      <trkpt lat="43.12187" lon="-1.50116">
        <ele>423.1</ele>
        <time>2022-07-19T08:14:06Z</time>
      </trkpt>
      <trkpt lat="43.12205" lon="-1.50123">
        <ele>426.1</ele>
        <time>2022-07-19T08:14:20Z</time>
      </trkpt>
      <trkpt lat="43.12223" lon="-1.5013">
        <ele>426.1</ele>
        <time>2022-07-19T08:14:33Z</time>
      </trkpt>
      <trkpt lat="43.12241" lon="-1.50135">
        <ele>430.2</ele>
        <time>2022-07-19T08:14:46Z</time>
      </trkpt>
      <trkpt lat="43.1226" lon="-1.50139">
        <ele>432.6</ele>
        <time>2022-07-19T08:14:59Z</time>
      </trkpt>
      <trkpt lat="43.12279" lon="-1.50143">
        <ele>435.5</ele>
        <time>2022-07-19T08:15:12Z</time>
      </trkpt>
      <trkpt lat="43.12298" lon="-1.50147">
        <ele>438.5</ele>
        <time>2022-07-19T08:15:24Z</time>
      </trkpt>
      <trkpt lat="43.12316" lon="-1.50152">
        <ele>438.8</ele>
        <time>2022-07-19T08:15:35Z</time>
      </trkpt>
      <trkpt lat="43.12334" lon="-1.50162">
        <ele>442.7</ele>
        <time>2022-07-19T08:15:47Z</time>
      </trkpt>
      <trkpt lat="43.1235" lon="-1.50175">
        <ele>445.1</ele>
        <time>2022-07-19T08:15:58Z</time>
      </trkpt>
      <trkpt lat="43.12367" lon="-1.5019">
        <ele>446.4</ele>
        <time>2022-07-19T08:16:09Z</time>
      </trkpt>
      <trkpt lat="43.12382" lon="-1.50207">
        <ele>448.9</ele>
        <time>2022-07-19T08:16:20Z</time>
      </trkpt>
      <trkpt lat="43.12396" lon="-1.50222">
        <ele>450.5</ele>
        <time>2022-07-19T08:16:30Z</time>
      </trkpt>
      <trkpt lat="43.12408" lon="-1.50243">
        <ele>453.3</ele>
        <time>2022-07-19T08:16:41Z</time>
      </trkpt>
      <trkpt lat="43.12423" lon="-1.50261">
        <ele>456.8</ele>
        <time>2022-07-19T08:16:51Z</time>
      </trkpt>
      <trkpt lat="43.12437" lon="-1.50277">
        <ele>459.6</ele>
        <time>2022-07-19T08:17:00Z</time>
      </trkpt>
      <trkpt lat="43.12451" lon="-1.50297">
        <ele>460</ele>
        <time>2022-07-19T08:17:09Z</time>
      </trkpt>
      <trkpt lat="43.12462" lon="-1.50318">
        <ele>459.4</ele>
        <time>2022-07-19T08:17:17Z</time>
      </trkpt>
      <trkpt lat="43.12473" lon="-1.5034">
        <ele>460.1</ele>
        <time>2022-07-19T08:17:26Z</time>
      </trkpt>
      <trkpt lat="43.12469" lon="-1.50365">
        <ele>461.4</ele>
        <time>2022-07-19T08:17:38Z</time>
      </trkpt>
      <trkpt lat="43.12457" lon="-1.50346">
        <ele>463.1</ele>
        <time>2022-07-19T08:17:51Z</time>
      </trkpt>
      <trkpt lat="43.12443" lon="-1.5033">
        <ele>466.6</ele>
        <time>2022-07-19T08:18:05Z</time>
      </trkpt>
      <trkpt lat="43.12427" lon="-1.50318">
        <ele>469.1</ele>
        <time>2022-07-19T08:18:18Z</time>
      </trkpt>
      <trkpt lat="43.12411" lon="-1.50307">
        <ele>472.8</ele>
        <time>2022-07-19T08:18:32Z</time>
      </trkpt>
      <trkpt lat="43.12394" lon="-1.50298">
        <ele>475.6</ele>
        <time>2022-07-19T08:18:45Z</time>
      </trkpt>
      <trkpt lat="43.12377" lon="-1.50288">
        <ele>477.6</ele>
        <time>2022-07-19T08:18:57Z</time>
      </trkpt>
      <trkpt lat="43.12358" lon="-1.50284">
        <ele>479.5</ele>
        <time>2022-07-19T08:19:09Z</time>
      </trkpt>
      <trkpt lat="43.1234" lon="-1.5028">
        <ele>481.9</ele>
        <time>2022-07-19T08:19:21Z</time>
      </trkpt>
      <trkpt lat="43.12321" lon="-1.50277">
        <ele>482.2</ele>
        <time>2022-07-19T08:19:34Z</time>
      </trkpt>
      <trkpt lat="43.12303" lon="-1.50275">
        <ele>485.2</ele>
        <time>2022-07-19T08:19:46Z</time>
      </trkpt>
      <trkpt lat="43.12284" lon="-1.50274">
        <ele>488.9</ele>
        <time>2022-07-19T08:19:59Z</time>
      </trkpt>
      <trkpt lat="43.12264" lon="-1.50274">
        <ele>489.8</ele>
        <time>2022-07-19T08:20:11Z</time>
      </trkpt>
      <trkpt lat="43.12246" lon="-1.50275">
        <ele>491</ele>
        <time>2022-07-19T08:20:23Z</time>
      </trkpt>
      <trkpt lat="43.12227" lon="-1.50278">
        <ele>493.3</ele>
        <time>2022-07-19T08:20:36Z</time>
      </trkpt>
      <trkpt lat="43.12209" lon="-1.50281">
        <ele>497.7</ele>
        <time>2022-07-19T08:20:47Z</time>
      </trkpt>
      <trkpt lat="43.12189" lon="-1.50285">
        <ele>500.9</ele>
        <time>2022-07-19T08:21:01Z</time>
      </trkpt>
      <trkpt lat="43.1217" lon="-1.50289">
        <ele>504.5</ele>
        <time>2022-07-19T08:21:12Z</time>
      </trkpt>
      <trkpt lat="43.12152" lon="-1.503">
        <ele>505.2</ele>
        <time>2022-07-19T08:21:22Z</time>
      </trkpt>
      <trkpt lat="43.1214" lon="-1.50319">
        <ele>506</ele>
        <time>2022-07-19T08:21:34Z</time>
      </trkpt>
      <trkpt lat="43.12131" lon="-1.50341">
        <ele>510.1</ele>
        <time>2022-07-19T08:21:49Z</time>
      </trkpt>
      <trkpt lat="43.12125" lon="-1.50365">
        <ele>512.9</ele>
        <time>2022-07-19T08:22:00Z</time>
      </trkpt>
      <trkpt lat="43.12118" lon="-1.5039">
        <ele>511.9</ele>
        <time>2022-07-19T08:22:14Z</time>
      </trkpt>
      <trkpt lat="43.12104" lon="-1.50407">
        <ele>512.4</ele>
        <time>2022-07-19T08:22:26Z</time>
      </trkpt>
      <trkpt lat="43.12089" lon="-1.50423">
        <ele>511.8</ele>
        <time>2022-07-19T08:22:38Z</time>
      </trkpt>
      <trkpt lat="43.12075" lon="-1.50439">
        <ele>511.5</ele>
        <time>2022-07-19T08:22:53Z</time>
      </trkpt>
      <trkpt lat="43.12082" lon="-1.50462">
        <ele>514.6</ele>
        <time>2022-07-19T08:23:11Z</time>
      </trkpt>
      <trkpt lat="43.12091" lon="-1.50485">
        <ele>518.9</ele>
        <time>2022-07-19T08:23:24Z</time>
      </trkpt>
      <trkpt lat="43.12094" lon="-1.5051">
        <ele>521.1</ele>
        <time>2022-07-19T08:23:36Z</time>
      </trkpt>
      <trkpt lat="43.12093" lon="-1.50536">
        <ele>523.4</ele>
        <time>2022-07-19T08:23:49Z</time>
      </trkpt>
      <trkpt lat="43.12088" lon="-1.50561">
        <ele>523.7</ele>
        <time>2022-07-19T08:24:01Z</time>
      </trkpt>
      <trkpt lat="43.12081" lon="-1.50584">
        <ele>525.1</ele>
        <time>2022-07-19T08:24:15Z</time>
      </trkpt>
      <trkpt lat="43.12072" lon="-1.50605">
        <ele>525.8</ele>
        <time>2022-07-19T08:24:31Z</time>
      </trkpt>
      <trkpt lat="43.1206" lon="-1.50624">
        <ele>529.6</ele>
        <time>2022-07-19T08:24:48Z</time>
      </trkpt>
      <trkpt lat="43.12042" lon="-1.50616">
        <ele>531.4</ele>
        <time>2022-07-19T08:25:07Z</time>
      </trkpt>
      <trkpt lat="43.12042" lon="-1.50591">
        <ele>532.5</ele>
        <time>2022-07-19T08:25:22Z</time>
      </trkpt>
      <trkpt lat="43.12037" lon="-1.50567">
        <ele>535.8</ele>
        <time>2022-07-19T08:25:37Z</time>
      </trkpt>
      <trkpt lat="43.12027" lon="-1.50544">
        <ele>540.7</ele>
        <time>2022-07-19T08:25:52Z</time>
      </trkpt>
      <trkpt lat="43.12015" lon="-1.50524">
        <ele>542.5</ele>
        <time>2022-07-19T08:26:07Z</time>
      </trkpt>
      <trkpt lat="43.12002" lon="-1.50506">
        <ele>545.1</ele>
        <time>2022-07-19T08:26:21Z</time>
      </trkpt>
      <trkpt lat="43.1199" lon="-1.50487">
        <ele>547.9</ele>
        <time>2022-07-19T08:26:36Z</time>
      </trkpt>
      <trkpt lat="43.11974" lon="-1.50471">
        <ele>552.1</ele>
        <time>2022-07-19T08:26:51Z</time>
      </trkpt>
      <trkpt lat="43.11957" lon="-1.50461">
        <ele>554.7</ele>
        <time>2022-07-19T08:27:05Z</time>
      </trkpt>
      <trkpt lat="43.11939" lon="-1.50453">
        <ele>558.6</ele>
        <time>2022-07-19T08:27:19Z</time>
      </trkpt>
      <trkpt lat="43.11921" lon="-1.50445">
        <ele>561.5</ele>
        <time>2022-07-19T08:27:33Z</time>
      </trkpt>
      <trkpt lat="43.11902" lon="-1.50445">
        <ele>562.4</ele>
        <time>2022-07-19T08:27:46Z</time>
      </trkpt>
      <trkpt lat="43.11884" lon="-1.50448">
        <ele>564.7</ele>
        <time>2022-07-19T08:27:57Z</time>
      </trkpt>
      <trkpt lat="43.11866" lon="-1.50458">
        <ele>566.3</ele>
        <time>2022-07-19T08:28:08Z</time>
      </trkpt>
      <trkpt lat="43.1185" lon="-1.50472">
        <ele>566.7</ele>
        <time>2022-07-19T08:28:18Z</time>
      </trkpt>
      <trkpt lat="43.11833" lon="-1.50486">
        <ele>566.9</ele>
        <time>2022-07-19T08:28:28Z</time>
      </trkpt>
      <trkpt lat="43.11814" lon="-1.5048">
        <ele>566.3</ele>
        <time>2022-07-19T08:28:35Z</time>
      </trkpt>
      <trkpt lat="43.11796" lon="-1.50468">
        <ele>568</ele>
        <time>2022-07-19T08:28:42Z</time>
      </trkpt>
      <trkpt lat="43.11778" lon="-1.50458">
        <ele>566.7</ele>
        <time>2022-07-19T08:28:47Z</time>
      </trkpt>
      <trkpt lat="43.11758" lon="-1.50451">
        <ele>566.5</ele>
        <time>2022-07-19T08:28:52Z</time>
      </trkpt>
      <trkpt lat="43.11739" lon="-1.50444">
        <ele>566.9</ele>
        <time>2022-07-19T08:28:57Z</time>
      </trkpt>
      <trkpt lat="43.11718" lon="-1.50435">
        <ele>566.8</ele>
        <time>2022-07-19T08:29:03Z</time>
      </trkpt>
      <trkpt lat="43.11698" lon="-1.50432">
        <ele>566.6</ele>
        <time>2022-07-19T08:29:08Z</time>
      </trkpt>
      <trkpt lat="43.11681" lon="-1.50425">
        <ele>569.9</ele>
        <time>2022-07-19T08:29:13Z</time>
      </trkpt>
      <trkpt lat="43.11662" lon="-1.50419">
        <ele>574.8</ele>
        <time>2022-07-19T08:29:22Z</time>
      </trkpt>
      <trkpt lat="43.11644" lon="-1.50425">
        <ele>571.1</ele>
        <time>2022-07-19T08:32:01Z</time>
      </trkpt>
      <trkpt lat="43.11627" lon="-1.50436">
        <ele>572.8</ele>
        <time>2022-07-19T08:32:13Z</time>
      </trkpt>
      <trkpt lat="43.11611" lon="-1.5045">
        <ele>574.8</ele>
        <time>2022-07-19T08:32:25Z</time>
      </trkpt>
      <trkpt lat="43.11593" lon="-1.50454">
        <ele>578.3</ele>
        <time>2022-07-19T08:32:38Z</time>
      </trkpt>
      <trkpt lat="43.11578" lon="-1.50438">
        <ele>584.2</ele>
        <time>2022-07-19T08:32:49Z</time>
      </trkpt>
      <trkpt lat="43.11563" lon="-1.50422">
        <ele>586.5</ele>
        <time>2022-07-19T08:33:00Z</time>
      </trkpt>
      <trkpt lat="43.11552" lon="-1.50401">
        <ele>588.3</ele>
        <time>2022-07-19T08:33:15Z</time>
      </trkpt>
      <trkpt lat="43.11542" lon="-1.5038">
        <ele>590.4</ele>
        <time>2022-07-19T08:33:25Z</time>
      </trkpt>
      <trkpt lat="43.11529" lon="-1.50359">
        <ele>591.1</ele>
        <time>2022-07-19T08:33:34Z</time>
      </trkpt>
      <trkpt lat="43.11517" lon="-1.50341">
        <ele>588</ele>
        <time>2022-07-19T08:33:43Z</time>
      </trkpt>
      <trkpt lat="43.11501" lon="-1.50325">
        <ele>589.2</ele>
        <time>2022-07-19T08:33:53Z</time>
      </trkpt>
      <trkpt lat="43.11485" lon="-1.5031">
        <ele>585.8</ele>
        <time>2022-07-19T08:34:02Z</time>
      </trkpt>
      <trkpt lat="43.11469" lon="-1.50296">
        <ele>584.4</ele>
        <time>2022-07-19T08:34:11Z</time>
      </trkpt>
      <trkpt lat="43.11452" lon="-1.50285">
        <ele>583.3</ele>
        <time>2022-07-19T08:34:18Z</time>
      </trkpt>
      <trkpt lat="43.11433" lon="-1.50278">
        <ele>583.5</ele>
        <time>2022-07-19T08:34:25Z</time>
      </trkpt>
      <trkpt lat="43.11414" lon="-1.50276">
        <ele>583.9</ele>
        <time>2022-07-19T08:34:32Z</time>
      </trkpt>
      <trkpt lat="43.11395" lon="-1.50275">
        <ele>585.6</ele>
        <time>2022-07-19T08:34:39Z</time>
      </trkpt>
      <trkpt lat="43.11375" lon="-1.50275">
        <ele>585</ele>
        <time>2022-07-19T08:34:46Z</time>
      </trkpt>
      <trkpt lat="43.11357" lon="-1.50274">
        <ele>583.6</ele>
        <time>2022-07-19T08:34:52Z</time>
      </trkpt>
      <trkpt lat="43.11336" lon="-1.50271">
        <ele>583</ele>
        <time>2022-07-19T08:34:58Z</time>
      </trkpt>
      <trkpt lat="43.11314" lon="-1.5027">
        <ele>581.6</ele>
        <time>2022-07-19T08:35:03Z</time>
      </trkpt>
      <trkpt lat="43.11294" lon="-1.50273">
        <ele>580.5</ele>
        <time>2022-07-19T08:35:07Z</time>
      </trkpt>
      <trkpt lat="43.11276" lon="-1.50266">
        <ele>580.3</ele>
        <time>2022-07-19T08:35:10Z</time>
      </trkpt>
      <trkpt lat="43.11258" lon="-1.50258">
        <ele>580.6</ele>
        <time>2022-07-19T08:35:13Z</time>
      </trkpt>
      <trkpt lat="43.1124" lon="-1.50251">
        <ele>581.1</ele>
        <time>2022-07-19T08:35:16Z</time>
      </trkpt>
      <trkpt lat="43.11219" lon="-1.50241">
        <ele>582.2</ele>
        <time>2022-07-19T08:35:20Z</time>
      </trkpt>
      <trkpt lat="43.11199" lon="-1.50233">
        <ele>583.2</ele>
        <time>2022-07-19T08:35:24Z</time>
      </trkpt>
      <trkpt lat="43.11179" lon="-1.50227">
        <ele>583.9</ele>
        <time>2022-07-19T08:35:29Z</time>
      </trkpt>
      <trkpt lat="43.11161" lon="-1.50224">
        <ele>584.8</ele>
        <time>2022-07-19T08:35:34Z</time>
      </trkpt>
      <trkpt lat="43.11144" lon="-1.50213">
        <ele>582.4</ele>
        <time>2022-07-19T08:35:39Z</time>
      </trkpt>
      <trkpt lat="43.11125" lon="-1.50204">
        <ele>582.5</ele>
        <time>2022-07-19T08:35:44Z</time>
      </trkpt>
      <trkpt lat="43.11106" lon="-1.50197">
        <ele>584</ele>
        <time>2022-07-19T08:35:49Z</time>
      </trkpt>
      <trkpt lat="43.11088" lon="-1.50194">
        <ele>584.5</ele>
        <time>2022-07-19T08:35:54Z</time>
      </trkpt>
      <trkpt lat="43.11068" lon="-1.50193">
        <ele>583.8</ele>
        <time>2022-07-19T08:36:00Z</time>
      </trkpt>
      <trkpt lat="43.11049" lon="-1.50196">
        <ele>583.3</ele>
        <time>2022-07-19T08:36:05Z</time>
      </trkpt>
      <trkpt lat="43.11029" lon="-1.50205">
        <ele>585.3</ele>
        <time>2022-07-19T08:36:11Z</time>
      </trkpt>
      <trkpt lat="43.11012" lon="-1.50219">
        <ele>584.1</ele>
        <time>2022-07-19T08:36:16Z</time>
      </trkpt>
      <trkpt lat="43.10996" lon="-1.50238">
        <ele>584.8</ele>
        <time>2022-07-19T08:36:22Z</time>
      </trkpt>
      <trkpt lat="43.10976" lon="-1.50245">
        <ele>584.1</ele>
        <time>2022-07-19T08:36:28Z</time>
      </trkpt>
      <trkpt lat="43.10957" lon="-1.50246">
        <ele>588.3</ele>
        <time>2022-07-19T08:36:34Z</time>
      </trkpt>
      <trkpt lat="43.10936" lon="-1.50248">
        <ele>590</ele>
        <time>2022-07-19T08:36:39Z</time>
      </trkpt>
      <trkpt lat="43.10917" lon="-1.50252">
        <ele>589.9</ele>
        <time>2022-07-19T08:36:44Z</time>
      </trkpt>
      <trkpt lat="43.10896" lon="-1.50259">
        <ele>591.2</ele>
        <time>2022-07-19T08:36:50Z</time>
      </trkpt>
      <trkpt lat="43.10877" lon="-1.50264">
        <ele>592.2</ele>
        <time>2022-07-19T08:36:55Z</time>
      </trkpt>
      <trkpt lat="43.10858" lon="-1.5027">
        <ele>590.8</ele>
        <time>2022-07-19T08:37:01Z</time>
      </trkpt>
      <trkpt lat="43.10839" lon="-1.50277">
        <ele>594.5</ele>
        <time>2022-07-19T08:37:09Z</time>
      </trkpt>
      <trkpt lat="43.10821" lon="-1.50287">
        <ele>593.6</ele>
        <time>2022-07-19T08:37:17Z</time>
      </trkpt>
      <trkpt lat="43.10804" lon="-1.50297">
        <ele>592.8</ele>
        <time>2022-07-19T08:37:26Z</time>
      </trkpt>
      <trkpt lat="43.10787" lon="-1.50309">
        <ele>593.9</ele>
        <time>2022-07-19T08:37:36Z</time>
      </trkpt>
      <trkpt lat="43.10769" lon="-1.50319">
        <ele>595.3</ele>
        <time>2022-07-19T08:37:45Z</time>
      </trkpt>
      <trkpt lat="43.1075" lon="-1.5033">
        <ele>594.5</ele>
        <time>2022-07-19T08:37:55Z</time>
      </trkpt>
      <trkpt lat="43.10732" lon="-1.50336">
        <ele>597.8</ele>
        <time>2022-07-19T08:38:03Z</time>
      </trkpt>
      <trkpt lat="43.10713" lon="-1.50341">
        <ele>596.9</ele>
        <time>2022-07-19T08:38:12Z</time>
      </trkpt>
      <trkpt lat="43.10695" lon="-1.50335">
        <ele>595.8</ele>
        <time>2022-07-19T08:38:19Z</time>
      </trkpt>
      <trkpt lat="43.10677" lon="-1.50321">
        <ele>593.4</ele>
        <time>2022-07-19T08:38:24Z</time>
      </trkpt>
      <trkpt lat="43.10658" lon="-1.50304">
        <ele>591</ele>
        <time>2022-07-19T08:38:29Z</time>
      </trkpt>
      <trkpt lat="43.10648" lon="-1.5028">
        <ele>590.5</ele>
        <time>2022-07-19T08:38:34Z</time>
      </trkpt>
      <trkpt lat="43.10636" lon="-1.50259">
        <ele>590.4</ele>
        <time>2022-07-19T08:38:43Z</time>
      </trkpt>
      <trkpt lat="43.10627" lon="-1.50237">
        <ele>591.1</ele>
        <time>2022-07-19T08:38:51Z</time>
      </trkpt>
      <trkpt lat="43.10619" lon="-1.50212">
        <ele>592.6</ele>
        <time>2022-07-19T08:38:59Z</time>
      </trkpt>
      <trkpt lat="43.10611" lon="-1.50188">
        <ele>592.2</ele>
        <time>2022-07-19T08:39:06Z</time>
      </trkpt>
      <trkpt lat="43.10605" lon="-1.50165">
        <ele>591.6</ele>
        <time>2022-07-19T08:39:12Z</time>
      </trkpt>
      <trkpt lat="43.10598" lon="-1.50141">
        <ele>592.5</ele>
        <time>2022-07-19T08:39:17Z</time>
      </trkpt>
      <trkpt lat="43.10592" lon="-1.50115">
        <ele>591.1</ele>
        <time>2022-07-19T08:39:23Z</time>
      </trkpt>
      <trkpt lat="43.10587" lon="-1.50091">
        <ele>591.5</ele>
        <time>2022-07-19T08:39:29Z</time>
      </trkpt>
      <trkpt lat="43.10575" lon="-1.50071">
        <ele>593.5</ele>
        <time>2022-07-19T08:39:38Z</time>
      </trkpt>
      <trkpt lat="43.10562" lon="-1.50053">
        <ele>595.3</ele>
        <time>2022-07-19T08:39:51Z</time>
      </trkpt>
      <trkpt lat="43.10553" lon="-1.50031">
        <ele>597.8</ele>
        <time>2022-07-19T08:40:07Z</time>
      </trkpt>
      <trkpt lat="43.10556" lon="-1.50007">
        <ele>600.3</ele>
        <time>2022-07-19T08:40:23Z</time>
      </trkpt>
      <trkpt lat="43.10565" lon="-1.49984">
        <ele>600</ele>
        <time>2022-07-19T08:40:37Z</time>
      </trkpt>
      <trkpt lat="43.1057" lon="-1.49959">
        <ele>604.6</ele>
        <time>2022-07-19T08:40:51Z</time>
      </trkpt>
      <trkpt lat="43.10574" lon="-1.49933">
        <ele>605.8</ele>
        <time>2022-07-19T08:41:08Z</time>
      </trkpt>
      <trkpt lat="43.10576" lon="-1.49908">
        <ele>610.4</ele>
        <time>2022-07-19T08:41:28Z</time>
      </trkpt>
      <trkpt lat="43.10578" lon="-1.49883">
        <ele>614</ele>
        <time>2022-07-19T08:41:45Z</time>
      </trkpt>
      <trkpt lat="43.10577" lon="-1.49858">
        <ele>615.4</ele>
        <time>2022-07-19T08:42:03Z</time>
      </trkpt>
      <trkpt lat="43.10579" lon="-1.49833">
        <ele>620.6</ele>
        <time>2022-07-19T08:42:20Z</time>
      </trkpt>
      <trkpt lat="43.10581" lon="-1.49807">
        <ele>622.4</ele>
        <time>2022-07-19T08:42:35Z</time>
      </trkpt>
      <trkpt lat="43.10582" lon="-1.49781">
        <ele>625.7</ele>
        <time>2022-07-19T08:42:51Z</time>
      </trkpt>
      <trkpt lat="43.10579" lon="-1.49755">
        <ele>629</ele>
        <time>2022-07-19T08:43:07Z</time>
      </trkpt>
      <trkpt lat="43.10581" lon="-1.49729">
        <ele>630</ele>
        <time>2022-07-19T08:43:53Z</time>
      </trkpt>
      <trkpt lat="43.10596" lon="-1.49706">
        <ele>624.9</ele>
        <time>2022-07-19T08:44:00Z</time>
      </trkpt>
      <trkpt lat="43.10605" lon="-1.49681">
        <ele>624.3</ele>
        <time>2022-07-19T08:44:05Z</time>
      </trkpt>
      <trkpt lat="43.10613" lon="-1.49653">
        <ele>622.5</ele>
        <time>2022-07-19T08:44:11Z</time>
      </trkpt>
      <trkpt lat="43.10628" lon="-1.49637">
        <ele>622.6</ele>
        <time>2022-07-19T08:44:18Z</time>
      </trkpt>
      <trkpt lat="43.1064" lon="-1.49614">
        <ele>621.2</ele>
        <time>2022-07-19T08:44:26Z</time>
      </trkpt>
      <trkpt lat="43.10647" lon="-1.49588">
        <ele>618.9</ele>
        <time>2022-07-19T08:44:32Z</time>
      </trkpt>
      <trkpt lat="43.10655" lon="-1.49565">
        <ele>616.2</ele>
        <time>2022-07-19T08:44:36Z</time>
      </trkpt>
      <trkpt lat="43.10661" lon="-1.49541">
        <ele>613.7</ele>
        <time>2022-07-19T08:44:41Z</time>
      </trkpt>
      <trkpt lat="43.10651" lon="-1.49519">
        <ele>613.9</ele>
        <time>2022-07-19T08:44:49Z</time>
      </trkpt>
      <trkpt lat="43.10632" lon="-1.49507">
        <ele>612.2</ele>
        <time>2022-07-19T08:44:54Z</time>
      </trkpt>
      <trkpt lat="43.10622" lon="-1.49486">
        <ele>614.4</ele>
        <time>2022-07-19T08:45:01Z</time>
      </trkpt>
      <trkpt lat="43.10622" lon="-1.4946">
        <ele>616.8</ele>
        <time>2022-07-19T08:45:13Z</time>
      </trkpt>
      <trkpt lat="43.10613" lon="-1.49438">
        <ele>621</ele>
        <time>2022-07-19T08:45:25Z</time>
      </trkpt>
      <trkpt lat="43.10605" lon="-1.49415">
        <ele>624.3</ele>
        <time>2022-07-19T08:45:37Z</time>
      </trkpt>
      <trkpt lat="43.10598" lon="-1.49392">
        <ele>627.3</ele>
        <time>2022-07-19T08:45:51Z</time>
      </trkpt>
      <trkpt lat="43.10588" lon="-1.49371">
        <ele>630.1</ele>
        <time>2022-07-19T08:46:04Z</time>
      </trkpt>
      <trkpt lat="43.10584" lon="-1.49345">
        <ele>635.9</ele>
        <time>2022-07-19T08:46:19Z</time>
      </trkpt>
      <trkpt lat="43.10579" lon="-1.49319">
        <ele>639.6</ele>
        <time>2022-07-19T08:46:37Z</time>
      </trkpt>
      <trkpt lat="43.10574" lon="-1.49296">
        <ele>641.3</ele>
        <time>2022-07-19T08:46:52Z</time>
      </trkpt>
      <trkpt lat="43.10567" lon="-1.49272">
        <ele>638.6</ele>
        <time>2022-07-19T08:47:06Z</time>
      </trkpt>
      <trkpt lat="43.1056" lon="-1.4925">
        <ele>635.2</ele>
        <time>2022-07-19T08:47:19Z</time>
      </trkpt>
      <trkpt lat="43.10552" lon="-1.49227">
        <ele>637</ele>
        <time>2022-07-19T08:47:32Z</time>
      </trkpt>
      <trkpt lat="43.10545" lon="-1.49203">
        <ele>638.6</ele>
        <time>2022-07-19T08:47:47Z</time>
      </trkpt>
      <trkpt lat="43.10535" lon="-1.49181">
        <ele>644.1</ele>
        <time>2022-07-19T08:48:01Z</time>
      </trkpt>
      <trkpt lat="43.10526" lon="-1.49159">
        <ele>650.5</ele>
        <time>2022-07-19T08:48:13Z</time>
      </trkpt>
      <trkpt lat="43.10521" lon="-1.49135">
        <ele>657.3</ele>
        <time>2022-07-19T08:48:26Z</time>
      </trkpt>
      <trkpt lat="43.1051" lon="-1.49114">
        <ele>660.5</ele>
        <time>2022-07-19T08:48:41Z</time>
      </trkpt>
      <trkpt lat="43.10494" lon="-1.49099">
        <ele>661.2</ele>
        <time>2022-07-19T08:48:54Z</time>
      </trkpt>
      <trkpt lat="43.10479" lon="-1.49084">
        <ele>658.2</ele>
        <time>2022-07-19T08:49:07Z</time>
      </trkpt>
      <trkpt lat="43.10468" lon="-1.49064">
        <ele>658.4</ele>
        <time>2022-07-19T08:49:23Z</time>
      </trkpt>
      <trkpt lat="43.1046" lon="-1.49042">
        <ele>659</ele>
        <time>2022-07-19T08:49:38Z</time>
      </trkpt>
      <trkpt lat="43.10463" lon="-1.49017">
        <ele>666</ele>
        <time>2022-07-19T08:49:53Z</time>
      </trkpt>
      <trkpt lat="43.1046" lon="-1.48993">
        <ele>667.9</ele>
        <time>2022-07-19T08:50:09Z</time>
      </trkpt>
      <trkpt lat="43.10451" lon="-1.48969">
        <ele>669.3</ele>
        <time>2022-07-19T08:50:24Z</time>
      </trkpt>
      <trkpt lat="43.10448" lon="-1.48944">
        <ele>672</ele>
        <time>2022-07-19T08:50:35Z</time>
      </trkpt>
      <trkpt lat="43.10459" lon="-1.48924">
        <ele>672.3</ele>
        <time>2022-07-19T08:50:51Z</time>
      </trkpt>
      <trkpt lat="43.10472" lon="-1.48906">
        <ele>674.2</ele>
        <time>2022-07-19T08:51:04Z</time>
      </trkpt>
      <trkpt lat="43.10484" lon="-1.48886">
        <ele>675</ele>
        <time>2022-07-19T08:51:17Z</time>
      </trkpt>
      <trkpt lat="43.105" lon="-1.48873">
        <ele>679.8</ele>
        <time>2022-07-19T08:51:29Z</time>
      </trkpt>
      <trkpt lat="43.10514" lon="-1.48856">
        <ele>681.6</ele>
        <time>2022-07-19T08:51:42Z</time>
      </trkpt>
      <trkpt lat="43.10529" lon="-1.48841">
        <ele>682.9</ele>
        <time>2022-07-19T08:51:57Z</time>
      </trkpt>
      <trkpt lat="43.10542" lon="-1.48822">
        <ele>685.7</ele>
        <time>2022-07-19T08:52:10Z</time>
      </trkpt>
      <trkpt lat="43.10558" lon="-1.48809">
        <ele>688.6</ele>
        <time>2022-07-19T08:52:24Z</time>
      </trkpt>
      <trkpt lat="43.10574" lon="-1.48794">
        <ele>694.3</ele>
        <time>2022-07-19T08:52:40Z</time>
      </trkpt>
      <trkpt lat="43.10589" lon="-1.4878">
        <ele>694.8</ele>
        <time>2022-07-19T08:52:55Z</time>
      </trkpt>
      <trkpt lat="43.10606" lon="-1.48768">
        <ele>698</ele>
        <time>2022-07-19T08:53:10Z</time>
      </trkpt>
      <trkpt lat="43.10622" lon="-1.48755">
        <ele>700.5</ele>
        <time>2022-07-19T08:53:25Z</time>
      </trkpt>
      <trkpt lat="43.10638" lon="-1.48743">
        <ele>704.9</ele>
        <time>2022-07-19T08:53:41Z</time>
      </trkpt>
      <trkpt lat="43.10653" lon="-1.48729">
        <ele>708.5</ele>
        <time>2022-07-19T08:53:56Z</time>
      </trkpt>
      <trkpt lat="43.10668" lon="-1.48714">
        <ele>713.4</ele>
        <time>2022-07-19T08:54:11Z</time>
      </trkpt>
      <trkpt lat="43.10679" lon="-1.48692">
        <ele>714.3</ele>
        <time>2022-07-19T08:54:26Z</time>
      </trkpt>
      <trkpt lat="43.10688" lon="-1.4867">
        <ele>713.4</ele>
        <time>2022-07-19T08:54:41Z</time>
      </trkpt>
      <trkpt lat="43.10698" lon="-1.48648">
        <ele>714.9</ele>
        <time>2022-07-19T08:54:54Z</time>
      </trkpt>
      <trkpt lat="43.10707" lon="-1.48626">
        <ele>717.8</ele>
        <time>2022-07-19T08:55:09Z</time>
      </trkpt>
      <trkpt lat="43.10707" lon="-1.486">
        <ele>720.2</ele>
        <time>2022-07-19T08:55:25Z</time>
      </trkpt>
      <trkpt lat="43.10711" lon="-1.48576">
        <ele>723.9</ele>
        <time>2022-07-19T08:55:42Z</time>
      </trkpt>
      <trkpt lat="43.10707" lon="-1.48551">
        <ele>726.2</ele>
        <time>2022-07-19T08:56:00Z</time>
      </trkpt>
      <trkpt lat="43.10703" lon="-1.48527">
        <ele>731.8</ele>
        <time>2022-07-19T08:56:17Z</time>
      </trkpt>
      <trkpt lat="43.107" lon="-1.48502">
        <ele>737.3</ele>
        <time>2022-07-19T08:56:36Z</time>
      </trkpt>
      <trkpt lat="43.10703" lon="-1.48477">
        <ele>738.8</ele>
        <time>2022-07-19T08:56:55Z</time>
      </trkpt>
      <trkpt lat="43.10699" lon="-1.48453">
        <ele>741</ele>
        <time>2022-07-19T08:57:15Z</time>
      </trkpt>
      <trkpt lat="43.10693" lon="-1.4843">
        <ele>740.2</ele>
        <time>2022-07-19T08:57:33Z</time>
      </trkpt>
      <trkpt lat="43.10686" lon="-1.48406">
        <ele>747.1</ele>
        <time>2022-07-19T08:57:53Z</time>
      </trkpt>
      <trkpt lat="43.10671" lon="-1.48392">
        <ele>747.1</ele>
        <time>2022-07-19T08:58:11Z</time>
      </trkpt>
      <trkpt lat="43.1066" lon="-1.48372">
        <ele>750.5</ele>
        <time>2022-07-19T08:58:27Z</time>
      </trkpt>
      <trkpt lat="43.10651" lon="-1.4835">
        <ele>746.1</ele>
        <time>2022-07-19T08:59:58Z</time>
      </trkpt>
      <trkpt lat="43.10638" lon="-1.48331">
        <ele>747.6</ele>
        <time>2022-07-19T09:05:54Z</time>
      </trkpt>
      <trkpt lat="43.10629" lon="-1.48308">
        <ele>753.3</ele>
        <time>2022-07-19T09:06:07Z</time>
      </trkpt>
      <trkpt lat="43.10619" lon="-1.48286">
        <ele>757.6</ele>
        <time>2022-07-19T09:06:25Z</time>
      </trkpt>
      <trkpt lat="43.10612" lon="-1.48264">
        <ele>758.8</ele>
        <time>2022-07-19T09:06:40Z</time>
      </trkpt>
      <trkpt lat="43.10607" lon="-1.4824">
        <ele>760</ele>
        <time>2022-07-19T09:06:53Z</time>
      </trkpt>
      <trkpt lat="43.10601" lon="-1.48215">
        <ele>763.2</ele>
        <time>2022-07-19T09:07:08Z</time>
      </trkpt>
      <trkpt lat="43.10592" lon="-1.48193">
        <ele>767.7</ele>
        <time>2022-07-19T09:07:23Z</time>
      </trkpt>
      <trkpt lat="43.10586" lon="-1.48169">
        <ele>771.2</ele>
        <time>2022-07-19T09:07:37Z</time>
      </trkpt>
      <trkpt lat="43.10577" lon="-1.48146">
        <ele>771.8</ele>
        <time>2022-07-19T09:07:52Z</time>
      </trkpt>
      <trkpt lat="43.10565" lon="-1.48125">
        <ele>771.4</ele>
        <time>2022-07-19T09:08:05Z</time>
      </trkpt>
      <trkpt lat="43.1055" lon="-1.48109">
        <ele>770.4</ele>
        <time>2022-07-19T09:08:18Z</time>
      </trkpt>
      <trkpt lat="43.10533" lon="-1.48098">
        <ele>772.9</ele>
        <time>2022-07-19T09:08:32Z</time>
      </trkpt>
      <trkpt lat="43.10516" lon="-1.48089">
        <ele>773.5</ele>
        <time>2022-07-19T09:08:44Z</time>
      </trkpt>
      <trkpt lat="43.10501" lon="-1.48105">
        <ele>776</ele>
        <time>2022-07-19T09:08:56Z</time>
      </trkpt>
      <trkpt lat="43.1049" lon="-1.48126">
        <ele>782.6</ele>
        <time>2022-07-19T09:09:11Z</time>
      </trkpt>
      <trkpt lat="43.10476" lon="-1.48142">
        <ele>788.1</ele>
        <time>2022-07-19T09:09:30Z</time>
      </trkpt>
      <trkpt lat="43.10459" lon="-1.48152">
        <ele>792.8</ele>
        <time>2022-07-19T09:09:46Z</time>
      </trkpt>
      <trkpt lat="43.10444" lon="-1.48166">
        <ele>790.2</ele>
        <time>2022-07-19T09:10:01Z</time>
      </trkpt>
      <trkpt lat="43.10431" lon="-1.48186">
        <ele>792.9</ele>
        <time>2022-07-19T09:10:17Z</time>
      </trkpt>
      <trkpt lat="43.10443" lon="-1.48205">
        <ele>796.1</ele>
        <time>2022-07-19T09:10:36Z</time>
      </trkpt>
      <trkpt lat="43.10458" lon="-1.48219">
        <ele>795.4</ele>
        <time>2022-07-19T09:10:53Z</time>
      </trkpt>
      <trkpt lat="43.10472" lon="-1.48237">
        <ele>797.9</ele>
        <time>2022-07-19T09:11:10Z</time>
      </trkpt>
      <trkpt lat="43.10483" lon="-1.48257">
        <ele>803.3</ele>
        <time>2022-07-19T09:11:27Z</time>
      </trkpt>
      <trkpt lat="43.10495" lon="-1.48278">
        <ele>808.2</ele>
        <time>2022-07-19T09:11:43Z</time>
      </trkpt>
      <trkpt lat="43.10481" lon="-1.48297">
        <ele>810.4</ele>
        <time>2022-07-19T09:11:56Z</time>
      </trkpt>
      <trkpt lat="43.10463" lon="-1.48296">
        <ele>815.2</ele>
        <time>2022-07-19T09:12:11Z</time>
      </trkpt>
      <trkpt lat="43.10445" lon="-1.48288">
        <ele>820.4</ele>
        <time>2022-07-19T09:12:26Z</time>
      </trkpt>
      <trkpt lat="43.10427" lon="-1.48286">
        <ele>824.8</ele>
        <time>2022-07-19T09:12:41Z</time>
      </trkpt>
      <trkpt lat="43.10408" lon="-1.48286">
        <ele>827.5</ele>
        <time>2022-07-19T09:12:56Z</time>
      </trkpt>
      <trkpt lat="43.10391" lon="-1.48294">
        <ele>830.1</ele>
        <time>2022-07-19T09:13:13Z</time>
      </trkpt>
      <trkpt lat="43.10373" lon="-1.48301">
        <ele>833.4</ele>
        <time>2022-07-19T09:13:32Z</time>
      </trkpt>
      <trkpt lat="43.10355" lon="-1.48306">
        <ele>838.4</ele>
        <time>2022-07-19T09:13:52Z</time>
      </trkpt>
      <trkpt lat="43.10337" lon="-1.48313">
        <ele>842.8</ele>
        <time>2022-07-19T09:14:13Z</time>
      </trkpt>
      <trkpt lat="43.10319" lon="-1.48318">
        <ele>844.3</ele>
        <time>2022-07-19T09:14:31Z</time>
      </trkpt>
      <trkpt lat="43.103" lon="-1.48319">
        <ele>847.6</ele>
        <time>2022-07-19T09:14:50Z</time>
      </trkpt>
      <trkpt lat="43.10283" lon="-1.48328">
        <ele>849.7</ele>
        <time>2022-07-19T09:15:54Z</time>
      </trkpt>
      <trkpt lat="43.10265" lon="-1.4833">
        <ele>852.2</ele>
        <time>2022-07-19T09:16:09Z</time>
      </trkpt>
      <trkpt lat="43.10246" lon="-1.48332">
        <ele>855.9</ele>
        <time>2022-07-19T09:16:25Z</time>
      </trkpt>
      <trkpt lat="43.10227" lon="-1.48333">
        <ele>856.7</ele>
        <time>2022-07-19T09:16:39Z</time>
      </trkpt>
      <trkpt lat="43.10209" lon="-1.48338">
        <ele>858.8</ele>
        <time>2022-07-19T09:16:53Z</time>
      </trkpt>
      <trkpt lat="43.10192" lon="-1.48344">
        <ele>862.1</ele>
        <time>2022-07-19T09:17:07Z</time>
      </trkpt>
      <trkpt lat="43.10173" lon="-1.48345">
        <ele>865.1</ele>
        <time>2022-07-19T09:17:20Z</time>
      </trkpt>
      <trkpt lat="43.10155" lon="-1.4835">
        <ele>865.4</ele>
        <time>2022-07-19T09:17:35Z</time>
      </trkpt>
      <trkpt lat="43.10139" lon="-1.48363">
        <ele>867</ele>
        <time>2022-07-19T09:17:51Z</time>
      </trkpt>
      <trkpt lat="43.10125" lon="-1.48379">
        <ele>870.8</ele>
        <time>2022-07-19T09:18:07Z</time>
      </trkpt>
      <trkpt lat="43.10114" lon="-1.48399">
        <ele>873.7</ele>
        <time>2022-07-19T09:18:23Z</time>
      </trkpt>
      <trkpt lat="43.10105" lon="-1.4842">
        <ele>875.2</ele>
        <time>2022-07-19T09:18:37Z</time>
      </trkpt>
      <trkpt lat="43.10093" lon="-1.48441">
        <ele>878</ele>
        <time>2022-07-19T09:18:50Z</time>
      </trkpt>
      <trkpt lat="43.10079" lon="-1.48459">
        <ele>880.7</ele>
        <time>2022-07-19T09:19:03Z</time>
      </trkpt>
      <trkpt lat="43.1007" lon="-1.48481">
        <ele>880.8</ele>
        <time>2022-07-19T09:19:17Z</time>
      </trkpt>
      <trkpt lat="43.10056" lon="-1.48497">
        <ele>881.4</ele>
        <time>2022-07-19T09:19:30Z</time>
      </trkpt>
      <trkpt lat="43.10037" lon="-1.48491">
        <ele>882.3</ele>
        <time>2022-07-19T09:19:42Z</time>
      </trkpt>
      <trkpt lat="43.10018" lon="-1.48482">
        <ele>883.5</ele>
        <time>2022-07-19T09:19:52Z</time>
      </trkpt>
      <trkpt lat="43.10002" lon="-1.48467">
        <ele>884.6</ele>
        <time>2022-07-19T09:20:01Z</time>
      </trkpt>
      <trkpt lat="43.09987" lon="-1.48452">
        <ele>886.3</ele>
        <time>2022-07-19T09:20:11Z</time>
      </trkpt>
      <trkpt lat="43.09971" lon="-1.48441">
        <ele>886.6</ele>
        <time>2022-07-19T09:20:21Z</time>
      </trkpt>
      <trkpt lat="43.09956" lon="-1.48427">
        <ele>887.6</ele>
        <time>2022-07-19T09:20:31Z</time>
      </trkpt>
      <trkpt lat="43.0994" lon="-1.48412">
        <ele>887.7</ele>
        <time>2022-07-19T09:20:42Z</time>
      </trkpt>
      <trkpt lat="43.09926" lon="-1.48397">
        <ele>889.3</ele>
        <time>2022-07-19T09:20:53Z</time>
      </trkpt>
      <trkpt lat="43.0991" lon="-1.48383">
        <ele>891.3</ele>
        <time>2022-07-19T09:21:04Z</time>
      </trkpt>
      <trkpt lat="43.09894" lon="-1.48371">
        <ele>893.5</ele>
        <time>2022-07-19T09:21:14Z</time>
      </trkpt>
      <trkpt lat="43.09877" lon="-1.48359">
        <ele>896.7</ele>
        <time>2022-07-19T09:21:26Z</time>
      </trkpt>
      <trkpt lat="43.09861" lon="-1.48347">
        <ele>898.4</ele>
        <time>2022-07-19T09:21:40Z</time>
      </trkpt>
      <trkpt lat="43.09844" lon="-1.48335">
        <ele>899.9</ele>
        <time>2022-07-19T09:21:53Z</time>
      </trkpt>
      <trkpt lat="43.09828" lon="-1.48321">
        <ele>902.1</ele>
        <time>2022-07-19T09:22:06Z</time>
      </trkpt>
      <trkpt lat="43.09813" lon="-1.48307">
        <ele>901.7</ele>
        <time>2022-07-19T09:22:19Z</time>
      </trkpt>
      <trkpt lat="43.09795" lon="-1.48297">
        <ele>904.1</ele>
        <time>2022-07-19T09:22:31Z</time>
      </trkpt>
      <trkpt lat="43.09779" lon="-1.48282">
        <ele>905</ele>
        <time>2022-07-19T09:22:42Z</time>
      </trkpt>
      <trkpt lat="43.0976" lon="-1.48273">
        <ele>903.2</ele>
        <time>2022-07-19T09:22:51Z</time>
      </trkpt>
      <trkpt lat="43.09745" lon="-1.48257">
        <ele>900.8</ele>
        <time>2022-07-19T09:22:56Z</time>
      </trkpt>
      <trkpt lat="43.09727" lon="-1.48243">
        <ele>898</ele>
        <time>2022-07-19T09:23:01Z</time>
      </trkpt>
      <trkpt lat="43.0971" lon="-1.48232">
        <ele>896.2</ele>
        <time>2022-07-19T09:23:05Z</time>
      </trkpt>
      <trkpt lat="43.09687" lon="-1.48233">
        <ele>894.6</ele>
        <time>2022-07-19T09:23:09Z</time>
      </trkpt>
      <trkpt lat="43.09668" lon="-1.48237">
        <ele>893.8</ele>
        <time>2022-07-19T09:23:12Z</time>
      </trkpt>
      <trkpt lat="43.09647" lon="-1.48243">
        <ele>893.1</ele>
        <time>2022-07-19T09:23:16Z</time>
      </trkpt>
      <trkpt lat="43.09629" lon="-1.48252">
        <ele>892.9</ele>
        <time>2022-07-19T09:23:20Z</time>
      </trkpt>
      <trkpt lat="43.09611" lon="-1.48265">
        <ele>893.3</ele>
        <time>2022-07-19T09:23:25Z</time>
      </trkpt>
      <trkpt lat="43.09593" lon="-1.48276">
        <ele>895.2</ele>
        <time>2022-07-19T09:23:32Z</time>
      </trkpt>
      <trkpt lat="43.09574" lon="-1.48286">
        <ele>895.7</ele>
        <time>2022-07-19T09:23:40Z</time>
      </trkpt>
      <trkpt lat="43.09555" lon="-1.48286">
        <ele>898.7</ele>
        <time>2022-07-19T09:23:48Z</time>
      </trkpt>
      <trkpt lat="43.09537" lon="-1.48279">
        <ele>898.7</ele>
        <time>2022-07-19T09:23:57Z</time>
      </trkpt>
      <trkpt lat="43.0952" lon="-1.48271">
        <ele>900.4</ele>
        <time>2022-07-19T09:24:06Z</time>
      </trkpt>
      <trkpt lat="43.09502" lon="-1.4826">
        <ele>899.6</ele>
        <time>2022-07-19T09:24:13Z</time>
      </trkpt>
      <trkpt lat="43.09484" lon="-1.48258">
        <ele>900.2</ele>
        <time>2022-07-19T09:24:22Z</time>
      </trkpt>
      <trkpt lat="43.09476" lon="-1.4828">
        <ele>899.4</ele>
        <time>2022-07-19T09:25:05Z</time>
      </trkpt>
      <trkpt lat="43.09466" lon="-1.48303">
        <ele>897.9</ele>
        <time>2022-07-19T09:25:14Z</time>
      </trkpt>
      <trkpt lat="43.09454" lon="-1.48325">
        <ele>895.5</ele>
        <time>2022-07-19T09:25:22Z</time>
      </trkpt>
      <trkpt lat="43.09437" lon="-1.48316">
        <ele>909.6</ele>
        <time>2022-07-19T09:29:38Z</time>
      </trkpt>
      <trkpt lat="43.09455" lon="-1.48319">
        <ele>886.2</ele>
        <time>2022-07-19T09:33:41Z</time>
      </trkpt>
      <trkpt lat="43.09467" lon="-1.483">
        <ele>893.8</ele>
        <time>2022-07-19T09:34:05Z</time>
      </trkpt>
      <trkpt lat="43.09476" lon="-1.48277">
        <ele>896.7</ele>
        <time>2022-07-19T09:34:22Z</time>
      </trkpt>
      <trkpt lat="43.0948" lon="-1.48253">
        <ele>899.2</ele>
        <time>2022-07-19T09:34:40Z</time>
      </trkpt>
      <trkpt lat="43.09483" lon="-1.48227">
        <ele>900.9</ele>
        <time>2022-07-19T09:34:52Z</time>
      </trkpt>
      <trkpt lat="43.0948" lon="-1.48203">
        <ele>903.3</ele>
        <time>2022-07-19T09:35:07Z</time>
      </trkpt>
      <trkpt lat="43.09479" lon="-1.48177">
        <ele>905.7</ele>
        <time>2022-07-19T09:35:24Z</time>
      </trkpt>
      <trkpt lat="43.09478" lon="-1.48152">
        <ele>906.9</ele>
        <time>2022-07-19T09:35:36Z</time>
      </trkpt>
      <trkpt lat="43.09476" lon="-1.48125">
        <ele>907.5</ele>
        <time>2022-07-19T09:35:47Z</time>
      </trkpt>
      <trkpt lat="43.09474" lon="-1.48099">
        <ele>908.1</ele>
        <time>2022-07-19T09:35:55Z</time>
      </trkpt>
      <trkpt lat="43.0947" lon="-1.48074">
        <ele>910.6</ele>
        <time>2022-07-19T09:36:06Z</time>
      </trkpt>
      <trkpt lat="43.09466" lon="-1.48048">
        <ele>911.1</ele>
        <time>2022-07-19T09:36:15Z</time>
      </trkpt>
      <trkpt lat="43.09461" lon="-1.48024">
        <ele>913.8</ele>
        <time>2022-07-19T09:36:25Z</time>
      </trkpt>
      <trkpt lat="43.09453" lon="-1.48001">
        <ele>914.6</ele>
        <time>2022-07-19T09:36:33Z</time>
      </trkpt>
      <trkpt lat="43.09448" lon="-1.47976">
        <ele>917.2</ele>
        <time>2022-07-19T09:36:43Z</time>
      </trkpt>
      <trkpt lat="43.09438" lon="-1.47954">
        <ele>919.1</ele>
        <time>2022-07-19T09:36:58Z</time>
      </trkpt>
      <trkpt lat="43.09434" lon="-1.4793">
        <ele>922.1</ele>
        <time>2022-07-19T09:37:13Z</time>
      </trkpt>
      <trkpt lat="43.09425" lon="-1.47907">
        <ele>924.6</ele>
        <time>2022-07-19T09:37:27Z</time>
      </trkpt>
      <trkpt lat="43.0942" lon="-1.47884">
        <ele>920.3</ele>
        <time>2022-07-19T09:37:44Z</time>
      </trkpt>
      <trkpt lat="43.09419" lon="-1.47859">
        <ele>920.9</ele>
        <time>2022-07-19T09:38:11Z</time>
      </trkpt>
      <trkpt lat="43.09409" lon="-1.47837">
        <ele>918.9</ele>
        <time>2022-07-19T09:38:31Z</time>
      </trkpt>
      <trkpt lat="43.094" lon="-1.47815">
        <ele>919.9</ele>
        <time>2022-07-19T09:38:53Z</time>
      </trkpt>
      <trkpt lat="43.09391" lon="-1.47791">
        <ele>920.1</ele>
        <time>2022-07-19T09:39:19Z</time>
      </trkpt>
      <trkpt lat="43.09381" lon="-1.47768">
        <ele>920.8</ele>
        <time>2022-07-19T09:39:31Z</time>
      </trkpt>
      <trkpt lat="43.09371" lon="-1.47746">
        <ele>924.3</ele>
        <time>2022-07-19T09:39:43Z</time>
      </trkpt>
      <trkpt lat="43.09363" lon="-1.47724">
        <ele>922.4</ele>
        <time>2022-07-19T09:39:57Z</time>
      </trkpt>
      <trkpt lat="43.09352" lon="-1.47703">
        <ele>924.8</ele>
        <time>2022-07-19T09:40:43Z</time>
      </trkpt>
      <trkpt lat="43.0934" lon="-1.47684">
        <ele>926.1</ele>
        <time>2022-07-19T09:41:07Z</time>
      </trkpt>
      <trkpt lat="43.09329" lon="-1.47663">
        <ele>925.5</ele>
        <time>2022-07-19T09:41:34Z</time>
      </trkpt>
      <trkpt lat="43.09316" lon="-1.47643">
        <ele>926.8</ele>
        <time>2022-07-19T09:41:46Z</time>
      </trkpt>
      <trkpt lat="43.09301" lon="-1.47629">
        <ele>929.7</ele>
        <time>2022-07-19T09:41:58Z</time>
      </trkpt>
      <trkpt lat="43.09287" lon="-1.47613">
        <ele>929.8</ele>
        <time>2022-07-19T09:42:06Z</time>
      </trkpt>
      <trkpt lat="43.0927" lon="-1.47598">
        <ele>931.3</ele>
        <time>2022-07-19T09:42:17Z</time>
      </trkpt>
      <trkpt lat="43.09258" lon="-1.47579">
        <ele>930.3</ele>
        <time>2022-07-19T09:42:30Z</time>
      </trkpt>
      <trkpt lat="43.09254" lon="-1.47553">
        <ele>929.6</ele>
        <time>2022-07-19T09:42:40Z</time>
      </trkpt>
      <trkpt lat="43.09243" lon="-1.47533">
        <ele>927.8</ele>
        <time>2022-07-19T09:42:47Z</time>
      </trkpt>
      <trkpt lat="43.09228" lon="-1.47516">
        <ele>927.6</ele>
        <time>2022-07-19T09:42:54Z</time>
      </trkpt>
      <trkpt lat="43.09224" lon="-1.47487">
        <ele>927.2</ele>
        <time>2022-07-19T09:43:06Z</time>
      </trkpt>
      <trkpt lat="43.09213" lon="-1.47467">
        <ele>928.3</ele>
        <time>2022-07-19T09:43:16Z</time>
      </trkpt>
      <trkpt lat="43.09201" lon="-1.47445">
        <ele>929</ele>
        <time>2022-07-19T09:43:28Z</time>
      </trkpt>
      <trkpt lat="43.09203" lon="-1.4742">
        <ele>924.9</ele>
        <time>2022-07-19T09:44:39Z</time>
      </trkpt>
      <trkpt lat="43.09191" lon="-1.47401">
        <ele>926.5</ele>
        <time>2022-07-19T09:44:50Z</time>
      </trkpt>
      <trkpt lat="43.09184" lon="-1.47376">
        <ele>926.5</ele>
        <time>2022-07-19T09:45:00Z</time>
      </trkpt>
      <trkpt lat="43.09173" lon="-1.47354">
        <ele>925.9</ele>
        <time>2022-07-19T09:45:09Z</time>
      </trkpt>
      <trkpt lat="43.09159" lon="-1.47336">
        <ele>924.5</ele>
        <time>2022-07-19T09:45:20Z</time>
      </trkpt>
      <trkpt lat="43.0915" lon="-1.47313">
        <ele>921.2</ele>
        <time>2022-07-19T09:45:28Z</time>
      </trkpt>
      <trkpt lat="43.09144" lon="-1.47289">
        <ele>919.2</ele>
        <time>2022-07-19T09:45:35Z</time>
      </trkpt>
      <trkpt lat="43.09155" lon="-1.47269">
        <ele>921.2</ele>
        <time>2022-07-19T09:45:57Z</time>
      </trkpt>
      <trkpt lat="43.09152" lon="-1.47245">
        <ele>923.9</ele>
        <time>2022-07-19T09:46:13Z</time>
      </trkpt>
      <trkpt lat="43.09151" lon="-1.4722">
        <ele>929.1</ele>
        <time>2022-07-19T09:46:32Z</time>
      </trkpt>
      <trkpt lat="43.09152" lon="-1.47194">
        <ele>932.8</ele>
        <time>2022-07-19T09:47:20Z</time>
      </trkpt>
      <trkpt lat="43.09137" lon="-1.47177">
        <ele>937.6</ele>
        <time>2022-07-19T09:47:38Z</time>
      </trkpt>
      <trkpt lat="43.09123" lon="-1.47159">
        <ele>940</ele>
        <time>2022-07-19T09:47:50Z</time>
      </trkpt>
      <trkpt lat="43.09109" lon="-1.47141">
        <ele>941.8</ele>
        <time>2022-07-19T09:48:03Z</time>
      </trkpt>
      <trkpt lat="43.09118" lon="-1.4712">
        <ele>943.3</ele>
        <time>2022-07-19T09:48:27Z</time>
      </trkpt>
      <trkpt lat="43.09137" lon="-1.47114">
        <ele>944.3</ele>
        <time>2022-07-19T09:48:42Z</time>
      </trkpt>
      <trkpt lat="43.09155" lon="-1.47106">
        <ele>947.4</ele>
        <time>2022-07-19T09:48:58Z</time>
      </trkpt>
      <trkpt lat="43.09172" lon="-1.471">
        <ele>951.3</ele>
        <time>2022-07-19T09:49:15Z</time>
      </trkpt>
      <trkpt lat="43.09191" lon="-1.47092">
        <ele>953.2</ele>
        <time>2022-07-19T09:50:01Z</time>
      </trkpt>
      <trkpt lat="43.09206" lon="-1.47072">
        <ele>951.3</ele>
        <time>2022-07-19T09:50:06Z</time>
      </trkpt>
      <trkpt lat="43.09219" lon="-1.47051">
        <ele>952.4</ele>
        <time>2022-07-19T09:50:12Z</time>
      </trkpt>
      <trkpt lat="43.09231" lon="-1.47032">
        <ele>952.5</ele>
        <time>2022-07-19T09:50:23Z</time>
      </trkpt>
      <trkpt lat="43.09243" lon="-1.47013">
        <ele>954.4</ele>
        <time>2022-07-19T09:51:26Z</time>
      </trkpt>
      <trkpt lat="43.09258" lon="-1.46997">
        <ele>956.7</ele>
        <time>2022-07-19T09:51:40Z</time>
      </trkpt>
      <trkpt lat="43.09269" lon="-1.46977">
        <ele>960.1</ele>
        <time>2022-07-19T09:51:54Z</time>
      </trkpt>
      <trkpt lat="43.09282" lon="-1.46956">
        <ele>957.3</ele>
        <time>2022-07-19T09:52:05Z</time>
      </trkpt>
      <trkpt lat="43.09301" lon="-1.46947">
        <ele>958.3</ele>
        <time>2022-07-19T09:55:51Z</time>
      </trkpt>
      <trkpt lat="43.0932" lon="-1.46937">
        <ele>954.5</ele>
        <time>2022-07-19T09:56:14Z</time>
      </trkpt>
      <trkpt lat="43.09337" lon="-1.4693">
        <ele>956.8</ele>
        <time>2022-07-19T09:56:24Z</time>
      </trkpt>
      <trkpt lat="43.09343" lon="-1.46905">
        <ele>956.8</ele>
        <time>2022-07-19T10:21:56Z</time>
      </trkpt>
      <trkpt lat="43.09328" lon="-1.46884">
        <ele>954.2</ele>
        <time>2022-07-19T10:22:01Z</time>
      </trkpt>
      <trkpt lat="43.09315" lon="-1.46863">
        <ele>949.3</ele>
        <time>2022-07-19T10:22:07Z</time>
      </trkpt>
      <trkpt lat="43.09318" lon="-1.46835">
        <ele>944.5</ele>
        <time>2022-07-19T10:22:12Z</time>
      </trkpt>
      <trkpt lat="43.09324" lon="-1.46811">
        <ele>942.1</ele>
        <time>2022-07-19T10:22:16Z</time>
      </trkpt>
      <trkpt lat="43.09335" lon="-1.4679">
        <ele>939</ele>
        <time>2022-07-19T10:22:20Z</time>
      </trkpt>
      <trkpt lat="43.09349" lon="-1.46766">
        <ele>935.2</ele>
        <time>2022-07-19T10:22:24Z</time>
      </trkpt>
      <trkpt lat="43.09363" lon="-1.46748">
        <ele>932.8</ele>
        <time>2022-07-19T10:22:27Z</time>
      </trkpt>
      <trkpt lat="43.09373" lon="-1.46727">
        <ele>928.5</ele>
        <time>2022-07-19T10:22:31Z</time>
      </trkpt>
      <trkpt lat="43.09389" lon="-1.4671">
        <ele>923.9</ele>
        <time>2022-07-19T10:22:36Z</time>
      </trkpt>
      <trkpt lat="43.09406" lon="-1.46696">
        <ele>919</ele>
        <time>2022-07-19T10:22:40Z</time>
      </trkpt>
      <trkpt lat="43.09426" lon="-1.46692">
        <ele>915.4</ele>
        <time>2022-07-19T10:22:44Z</time>
      </trkpt>
      <trkpt lat="43.09443" lon="-1.4668">
        <ele>909.2</ele>
        <time>2022-07-19T10:22:50Z</time>
      </trkpt>
      <trkpt lat="43.0946" lon="-1.46662">
        <ele>900.5</ele>
        <time>2022-07-19T10:22:56Z</time>
      </trkpt>
      <trkpt lat="43.09481" lon="-1.46656">
        <ele>893.8</ele>
        <time>2022-07-19T10:23:01Z</time>
      </trkpt>
      <trkpt lat="43.09499" lon="-1.4664">
        <ele>886.3</ele>
        <time>2022-07-19T10:23:05Z</time>
      </trkpt>
      <trkpt lat="43.09514" lon="-1.46626">
        <ele>879.3</ele>
        <time>2022-07-19T10:23:08Z</time>
      </trkpt>
      <trkpt lat="43.09528" lon="-1.4661">
        <ele>874.4</ele>
        <time>2022-07-19T10:23:11Z</time>
      </trkpt>
      <trkpt lat="43.09548" lon="-1.46597">
        <ele>869.5</ele>
        <time>2022-07-19T10:23:14Z</time>
      </trkpt>
      <trkpt lat="43.09571" lon="-1.46585">
        <ele>863.4</ele>
        <time>2022-07-19T10:23:17Z</time>
      </trkpt>
      <trkpt lat="43.09594" lon="-1.46574">
        <ele>858.5</ele>
        <time>2022-07-19T10:23:20Z</time>
      </trkpt>
      <trkpt lat="43.09615" lon="-1.46556">
        <ele>853.7</ele>
        <time>2022-07-19T10:23:23Z</time>
      </trkpt>
      <trkpt lat="43.09631" lon="-1.46537">
        <ele>851.1</ele>
        <time>2022-07-19T10:23:26Z</time>
      </trkpt>
      <trkpt lat="43.09648" lon="-1.46524">
        <ele>849</ele>
        <time>2022-07-19T10:23:31Z</time>
      </trkpt>
      <trkpt lat="43.09666" lon="-1.46514">
        <ele>843.9</ele>
        <time>2022-07-19T10:24:19Z</time>
      </trkpt>
      <trkpt lat="43.09684" lon="-1.46504">
        <ele>841.3</ele>
        <time>2022-07-19T10:24:27Z</time>
      </trkpt>
      <trkpt lat="43.09703" lon="-1.46501">
        <ele>840.2</ele>
        <time>2022-07-19T10:24:36Z</time>
      </trkpt>
      <trkpt lat="43.09722" lon="-1.46503">
        <ele>844.2</ele>
        <time>2022-07-19T10:24:46Z</time>
      </trkpt>
      <trkpt lat="43.09741" lon="-1.46499">
        <ele>845.9</ele>
        <time>2022-07-19T10:24:56Z</time>
      </trkpt>
      <trkpt lat="43.09759" lon="-1.46492">
        <ele>847.2</ele>
        <time>2022-07-19T10:25:06Z</time>
      </trkpt>
      <trkpt lat="43.09777" lon="-1.4648">
        <ele>848.6</ele>
        <time>2022-07-19T10:25:16Z</time>
      </trkpt>
      <trkpt lat="43.09793" lon="-1.46467">
        <ele>849.7</ele>
        <time>2022-07-19T10:25:24Z</time>
      </trkpt>
      <trkpt lat="43.0981" lon="-1.46453">
        <ele>849.9</ele>
        <time>2022-07-19T10:25:33Z</time>
      </trkpt>
      <trkpt lat="43.09829" lon="-1.46444">
        <ele>850.1</ele>
        <time>2022-07-19T10:25:40Z</time>
      </trkpt>
      <trkpt lat="43.09848" lon="-1.46434">
        <ele>852.4</ele>
        <time>2022-07-19T10:25:48Z</time>
      </trkpt>
      <trkpt lat="43.09866" lon="-1.46423">
        <ele>851.9</ele>
        <time>2022-07-19T10:25:55Z</time>
      </trkpt>
      <trkpt lat="43.09882" lon="-1.4641">
        <ele>848.8</ele>
        <time>2022-07-19T10:26:00Z</time>
      </trkpt>
      <trkpt lat="43.09903" lon="-1.46402">
        <ele>840.2</ele>
        <time>2022-07-19T10:26:05Z</time>
      </trkpt>
      <trkpt lat="43.09914" lon="-1.46375">
        <ele>834.7</ele>
        <time>2022-07-19T10:26:09Z</time>
      </trkpt>
      <trkpt lat="43.09927" lon="-1.46351">
        <ele>831.5</ele>
        <time>2022-07-19T10:26:13Z</time>
      </trkpt>
      <trkpt lat="43.09942" lon="-1.46332">
        <ele>829.9</ele>
        <time>2022-07-19T10:26:16Z</time>
      </trkpt>
      <trkpt lat="43.09961" lon="-1.46311">
        <ele>826.4</ele>
        <time>2022-07-19T10:26:20Z</time>
      </trkpt>
      <trkpt lat="43.09969" lon="-1.46288">
        <ele>823.9</ele>
        <time>2022-07-19T10:26:24Z</time>
      </trkpt>
      <trkpt lat="43.09978" lon="-1.46266">
        <ele>821.8</ele>
        <time>2022-07-19T10:26:30Z</time>
      </trkpt>
      <trkpt lat="43.09991" lon="-1.4624">
        <ele>815</ele>
        <time>2022-07-19T10:26:36Z</time>
      </trkpt>
      <trkpt lat="43.10005" lon="-1.4622">
        <ele>812</ele>
        <time>2022-07-19T10:26:39Z</time>
      </trkpt>
      <trkpt lat="43.10018" lon="-1.46192">
        <ele>811.4</ele>
        <time>2022-07-19T10:26:42Z</time>
      </trkpt>
      <trkpt lat="43.10017" lon="-1.46165">
        <ele>809.6</ele>
        <time>2022-07-19T10:26:46Z</time>
      </trkpt>
      <trkpt lat="43.10015" lon="-1.46138">
        <ele>805.2</ele>
        <time>2022-07-19T10:26:51Z</time>
      </trkpt>
      <trkpt lat="43.1001" lon="-1.46111">
        <ele>802.2</ele>
        <time>2022-07-19T10:26:55Z</time>
      </trkpt>
      <trkpt lat="43.10003" lon="-1.46089">
        <ele>802.4</ele>
        <time>2022-07-19T10:26:58Z</time>
      </trkpt>
      <trkpt lat="43.09989" lon="-1.46065">
        <ele>803</ele>
        <time>2022-07-19T10:27:02Z</time>
      </trkpt>
      <trkpt lat="43.09983" lon="-1.46037">
        <ele>801.5</ele>
        <time>2022-07-19T10:27:19Z</time>
      </trkpt>
      <trkpt lat="43.09975" lon="-1.46008">
        <ele>795.5</ele>
        <time>2022-07-19T10:27:23Z</time>
      </trkpt>
      <trkpt lat="43.09964" lon="-1.45976">
        <ele>792.5</ele>
        <time>2022-07-19T10:27:27Z</time>
      </trkpt>
      <trkpt lat="43.09953" lon="-1.45946">
        <ele>790.1</ele>
        <time>2022-07-19T10:27:30Z</time>
      </trkpt>
      <trkpt lat="43.09943" lon="-1.45915">
        <ele>789.1</ele>
        <time>2022-07-19T10:27:33Z</time>
      </trkpt>
      <trkpt lat="43.09942" lon="-1.45884">
        <ele>784.1</ele>
        <time>2022-07-19T10:27:36Z</time>
      </trkpt>
      <trkpt lat="43.09946" lon="-1.45856">
        <ele>780.5</ele>
        <time>2022-07-19T10:27:39Z</time>
      </trkpt>
      <trkpt lat="43.09958" lon="-1.45827">
        <ele>781</ele>
        <time>2022-07-19T10:27:42Z</time>
      </trkpt>
      <trkpt lat="43.09968" lon="-1.45798">
        <ele>777.3</ele>
        <time>2022-07-19T10:27:45Z</time>
      </trkpt>
      <trkpt lat="43.09979" lon="-1.45769">
        <ele>778</ele>
        <time>2022-07-19T10:27:48Z</time>
      </trkpt>
      <trkpt lat="43.09986" lon="-1.45743">
        <ele>776.9</ele>
        <time>2022-07-19T10:27:54Z</time>
      </trkpt>
      <trkpt lat="43.09989" lon="-1.45715">
        <ele>771.8</ele>
        <time>2022-07-19T10:27:59Z</time>
      </trkpt>
      <trkpt lat="43.09991" lon="-1.45684">
        <ele>765</ele>
        <time>2022-07-19T10:28:03Z</time>
      </trkpt>
      <trkpt lat="43.09996" lon="-1.45655">
        <ele>760.1</ele>
        <time>2022-07-19T10:28:06Z</time>
      </trkpt>
      <trkpt lat="43.10006" lon="-1.45622">
        <ele>756.6</ele>
        <time>2022-07-19T10:28:09Z</time>
      </trkpt>
      <trkpt lat="43.10014" lon="-1.45599">
        <ele>755.7</ele>
        <time>2022-07-19T10:28:11Z</time>
      </trkpt>
      <trkpt lat="43.10025" lon="-1.45569">
        <ele>753.7</ele>
        <time>2022-07-19T10:28:14Z</time>
      </trkpt>
      <trkpt lat="43.10032" lon="-1.45541">
        <ele>753.2</ele>
        <time>2022-07-19T10:28:17Z</time>
      </trkpt>
      <trkpt lat="43.10042" lon="-1.4552">
        <ele>754.2</ele>
        <time>2022-07-19T10:28:24Z</time>
      </trkpt>
      <trkpt lat="43.1005" lon="-1.45498">
        <ele>754.5</ele>
        <time>2022-07-19T10:28:39Z</time>
      </trkpt>
      <trkpt lat="43.10058" lon="-1.45475">
        <ele>756.8</ele>
        <time>2022-07-19T10:28:55Z</time>
      </trkpt>
      <trkpt lat="43.10064" lon="-1.45451">
        <ele>760.5</ele>
        <time>2022-07-19T10:29:13Z</time>
      </trkpt>
      <trkpt lat="43.10069" lon="-1.45426">
        <ele>766.2</ele>
        <time>2022-07-19T10:29:29Z</time>
      </trkpt>
      <trkpt lat="43.10077" lon="-1.45403">
        <ele>767.2</ele>
        <time>2022-07-19T10:29:43Z</time>
      </trkpt>
      <trkpt lat="43.10085" lon="-1.4538">
        <ele>769.4</ele>
        <time>2022-07-19T10:29:59Z</time>
      </trkpt>
      <trkpt lat="43.10094" lon="-1.45359">
        <ele>770.9</ele>
        <time>2022-07-19T10:30:17Z</time>
      </trkpt>
      <trkpt lat="43.10111" lon="-1.4535">
        <ele>772.5</ele>
        <time>2022-07-19T10:30:34Z</time>
      </trkpt>
      <trkpt lat="43.10129" lon="-1.4534">
        <ele>775.6</ele>
        <time>2022-07-19T10:30:50Z</time>
      </trkpt>
      <trkpt lat="43.10145" lon="-1.45327">
        <ele>776.4</ele>
        <time>2022-07-19T10:31:08Z</time>
      </trkpt>
      <trkpt lat="43.10162" lon="-1.45317">
        <ele>779.1</ele>
        <time>2022-07-19T10:31:26Z</time>
      </trkpt>
      <trkpt lat="43.10177" lon="-1.45302">
        <ele>783.5</ele>
        <time>2022-07-19T10:31:42Z</time>
      </trkpt>
      <trkpt lat="43.10193" lon="-1.4529">
        <ele>789.7</ele>
        <time>2022-07-19T10:32:01Z</time>
      </trkpt>
      <trkpt lat="43.1021" lon="-1.45282">
        <ele>789.6</ele>
        <time>2022-07-19T10:32:16Z</time>
      </trkpt>
      <trkpt lat="43.10227" lon="-1.45272">
        <ele>790.8</ele>
        <time>2022-07-19T10:32:36Z</time>
      </trkpt>
      <trkpt lat="43.10243" lon="-1.45259">
        <ele>794</ele>
        <time>2022-07-19T10:32:55Z</time>
      </trkpt>
      <trkpt lat="43.1026" lon="-1.45251">
        <ele>798.6</ele>
        <time>2022-07-19T10:33:15Z</time>
      </trkpt>
      <trkpt lat="43.10275" lon="-1.45236">
        <ele>804.7</ele>
        <time>2022-07-19T10:33:51Z</time>
      </trkpt>
      <trkpt lat="43.10292" lon="-1.45224">
        <ele>801.6</ele>
        <time>2022-07-19T10:34:05Z</time>
      </trkpt>
      <trkpt lat="43.10303" lon="-1.45203">
        <ele>812.6</ele>
        <time>2022-07-19T10:34:32Z</time>
      </trkpt>
      <trkpt lat="43.10315" lon="-1.45184">
        <ele>806.7</ele>
        <time>2022-07-19T10:35:13Z</time>
      </trkpt>
      <trkpt lat="43.10327" lon="-1.45164">
        <ele>803.2</ele>
        <time>2022-07-19T10:35:27Z</time>
      </trkpt>
      <trkpt lat="43.1034" lon="-1.45145">
        <ele>811</ele>
        <time>2022-07-19T10:35:39Z</time>
      </trkpt>
      <trkpt lat="43.10355" lon="-1.45128">
        <ele>811.5</ele>
        <time>2022-07-19T10:35:53Z</time>
      </trkpt>
      <trkpt lat="43.10363" lon="-1.45105">
        <ele>813.1</ele>
        <time>2022-07-19T10:36:05Z</time>
      </trkpt>
      <trkpt lat="43.10376" lon="-1.45087">
        <ele>816.9</ele>
        <time>2022-07-19T10:36:17Z</time>
      </trkpt>
      <trkpt lat="43.10389" lon="-1.4507">
        <ele>820</ele>
        <time>2022-07-19T10:36:28Z</time>
      </trkpt>
      <trkpt lat="43.10405" lon="-1.45057">
        <ele>821.5</ele>
        <time>2022-07-19T10:36:39Z</time>
      </trkpt>
      <trkpt lat="43.1042" lon="-1.45041">
        <ele>823.4</ele>
        <time>2022-07-19T10:36:50Z</time>
      </trkpt>
      <trkpt lat="43.10435" lon="-1.45026">
        <ele>825.2</ele>
        <time>2022-07-19T10:37:00Z</time>
      </trkpt>
      <trkpt lat="43.1045" lon="-1.45009">
        <ele>826.7</ele>
        <time>2022-07-19T10:37:10Z</time>
      </trkpt>
      <trkpt lat="43.10466" lon="-1.44994">
        <ele>833.3</ele>
        <time>2022-07-19T10:37:21Z</time>
      </trkpt>
      <trkpt lat="43.10479" lon="-1.44976">
        <ele>840</ele>
        <time>2022-07-19T10:37:34Z</time>
      </trkpt>
      <trkpt lat="43.10487" lon="-1.44951">
        <ele>847.6</ele>
        <time>2022-07-19T10:37:49Z</time>
      </trkpt>
      <trkpt lat="43.10484" lon="-1.44925">
        <ele>851.3</ele>
        <time>2022-07-19T10:37:59Z</time>
      </trkpt>
      <trkpt lat="43.10484" lon="-1.449">
        <ele>851.1</ele>
        <time>2022-07-19T10:38:08Z</time>
      </trkpt>
      <trkpt lat="43.10488" lon="-1.44875">
        <ele>852.1</ele>
        <time>2022-07-19T10:38:14Z</time>
      </trkpt>
      <trkpt lat="43.10495" lon="-1.44851">
        <ele>853.5</ele>
        <time>2022-07-19T10:38:24Z</time>
      </trkpt>
      <trkpt lat="43.10503" lon="-1.44828">
        <ele>855</ele>
        <time>2022-07-19T10:38:34Z</time>
      </trkpt>
      <trkpt lat="43.10515" lon="-1.44803">
        <ele>851.7</ele>
        <time>2022-07-19T10:38:41Z</time>
      </trkpt>
      <trkpt lat="43.1053" lon="-1.44775">
        <ele>846.9</ele>
        <time>2022-07-19T10:38:44Z</time>
      </trkpt>
      <trkpt lat="43.10541" lon="-1.44753">
        <ele>844.2</ele>
        <time>2022-07-19T10:38:46Z</time>
      </trkpt>
      <trkpt lat="43.10555" lon="-1.44728">
        <ele>846</ele>
        <time>2022-07-19T10:38:49Z</time>
      </trkpt>
      <trkpt lat="43.10571" lon="-1.44715">
        <ele>847.5</ele>
        <time>2022-07-19T10:39:00Z</time>
      </trkpt>
      <trkpt lat="43.10566" lon="-1.44689">
        <ele>847.2</ele>
        <time>2022-07-19T10:42:34Z</time>
      </trkpt>
      <trkpt lat="43.10581" lon="-1.44665">
        <ele>841.3</ele>
        <time>2022-07-19T10:42:39Z</time>
      </trkpt>
      <trkpt lat="43.10588" lon="-1.44636">
        <ele>834.8</ele>
        <time>2022-07-19T10:42:42Z</time>
      </trkpt>
      <trkpt lat="43.10595" lon="-1.44608">
        <ele>828.8</ele>
        <time>2022-07-19T10:42:45Z</time>
      </trkpt>
      <trkpt lat="43.10603" lon="-1.44581">
        <ele>821.7</ele>
        <time>2022-07-19T10:42:49Z</time>
      </trkpt>
      <trkpt lat="43.1061" lon="-1.4455">
        <ele>814</ele>
        <time>2022-07-19T10:42:54Z</time>
      </trkpt>
      <trkpt lat="43.10613" lon="-1.44523">
        <ele>809.4</ele>
        <time>2022-07-19T10:42:57Z</time>
      </trkpt>
      <trkpt lat="43.10617" lon="-1.44497">
        <ele>804.5</ele>
        <time>2022-07-19T10:43:00Z</time>
      </trkpt>
      <trkpt lat="43.10623" lon="-1.44469">
        <ele>798.1</ele>
        <time>2022-07-19T10:43:04Z</time>
      </trkpt>
      <trkpt lat="43.10636" lon="-1.44449">
        <ele>791</ele>
        <time>2022-07-19T10:43:08Z</time>
      </trkpt>
      <trkpt lat="43.10657" lon="-1.44433">
        <ele>784.4</ele>
        <time>2022-07-19T10:43:11Z</time>
      </trkpt>
      <trkpt lat="43.10673" lon="-1.4442">
        <ele>780.2</ele>
        <time>2022-07-19T10:43:13Z</time>
      </trkpt>
      <trkpt lat="43.10692" lon="-1.44409">
        <ele>776</ele>
        <time>2022-07-19T10:43:16Z</time>
      </trkpt>
      <trkpt lat="43.10709" lon="-1.44388">
        <ele>767.5</ele>
        <time>2022-07-19T10:43:20Z</time>
      </trkpt>
      <trkpt lat="43.10724" lon="-1.4437">
        <ele>759.7</ele>
        <time>2022-07-19T10:43:26Z</time>
      </trkpt>
      <trkpt lat="43.10719" lon="-1.44338">
        <ele>755.2</ele>
        <time>2022-07-19T10:43:31Z</time>
      </trkpt>
      <trkpt lat="43.10718" lon="-1.44313">
        <ele>753.1</ele>
        <time>2022-07-19T10:43:47Z</time>
      </trkpt>
      <trkpt lat="43.10719" lon="-1.44283">
        <ele>750.1</ele>
        <time>2022-07-19T10:44:29Z</time>
      </trkpt>
      <trkpt lat="43.10723" lon="-1.44256">
        <ele>750</ele>
        <time>2022-07-19T10:44:35Z</time>
      </trkpt>
      <trkpt lat="43.10731" lon="-1.44233">
        <ele>747.5</ele>
        <time>2022-07-19T10:44:39Z</time>
      </trkpt>
      <trkpt lat="43.1074" lon="-1.44208">
        <ele>747.1</ele>
        <time>2022-07-19T10:44:44Z</time>
      </trkpt>
      <trkpt lat="43.10744" lon="-1.44183">
        <ele>749.1</ele>
        <time>2022-07-19T10:44:52Z</time>
      </trkpt>
      <trkpt lat="43.10744" lon="-1.44158">
        <ele>752.7</ele>
        <time>2022-07-19T10:45:01Z</time>
      </trkpt>
      <trkpt lat="43.10744" lon="-1.44131">
        <ele>755.3</ele>
        <time>2022-07-19T10:45:10Z</time>
      </trkpt>
      <trkpt lat="43.10745" lon="-1.44103">
        <ele>755.2</ele>
        <time>2022-07-19T10:45:19Z</time>
      </trkpt>
      <trkpt lat="43.10751" lon="-1.44078">
        <ele>755.1</ele>
        <time>2022-07-19T10:45:28Z</time>
      </trkpt>
      <trkpt lat="43.10767" lon="-1.44068">
        <ele>754.2</ele>
        <time>2022-07-19T10:45:35Z</time>
      </trkpt>
      <trkpt lat="43.10786" lon="-1.44074">
        <ele>753.1</ele>
        <time>2022-07-19T10:45:42Z</time>
      </trkpt>
      <trkpt lat="43.10806" lon="-1.44074">
        <ele>750.7</ele>
        <time>2022-07-19T10:45:49Z</time>
      </trkpt>
      <trkpt lat="43.10826" lon="-1.44077">
        <ele>747.1</ele>
        <time>2022-07-19T10:45:54Z</time>
      </trkpt>
      <trkpt lat="43.10846" lon="-1.44086">
        <ele>743.5</ele>
        <time>2022-07-19T10:45:58Z</time>
      </trkpt>
      <trkpt lat="43.10864" lon="-1.44099">
        <ele>740.3</ele>
        <time>2022-07-19T10:46:02Z</time>
      </trkpt>
      <trkpt lat="43.10881" lon="-1.44106">
        <ele>738</ele>
        <time>2022-07-19T10:46:05Z</time>
      </trkpt>
      <trkpt lat="43.10901" lon="-1.44112">
        <ele>735.4</ele>
        <time>2022-07-19T10:46:08Z</time>
      </trkpt>
      <trkpt lat="43.10923" lon="-1.44114">
        <ele>733</ele>
        <time>2022-07-19T10:46:11Z</time>
      </trkpt>
      <trkpt lat="43.10944" lon="-1.44116">
        <ele>732</ele>
        <time>2022-07-19T10:46:14Z</time>
      </trkpt>
      <trkpt lat="43.10962" lon="-1.4412">
        <ele>729.6</ele>
        <time>2022-07-19T10:46:17Z</time>
      </trkpt>
      <trkpt lat="43.1098" lon="-1.4413">
        <ele>727.7</ele>
        <time>2022-07-19T10:46:21Z</time>
      </trkpt>
      <trkpt lat="43.10997" lon="-1.44149">
        <ele>724.2</ele>
        <time>2022-07-19T10:46:26Z</time>
      </trkpt>
      <trkpt lat="43.11016" lon="-1.44162">
        <ele>722.5</ele>
        <time>2022-07-19T10:46:31Z</time>
      </trkpt>
      <trkpt lat="43.11037" lon="-1.44171">
        <ele>717.4</ele>
        <time>2022-07-19T10:46:34Z</time>
      </trkpt>
      <trkpt lat="43.11058" lon="-1.44168">
        <ele>715.7</ele>
        <time>2022-07-19T10:46:39Z</time>
      </trkpt>
      <trkpt lat="43.11074" lon="-1.4415">
        <ele>712.3</ele>
        <time>2022-07-19T10:46:44Z</time>
      </trkpt>
      <trkpt lat="43.11088" lon="-1.44126">
        <ele>711</ele>
        <time>2022-07-19T10:46:49Z</time>
      </trkpt>
      <trkpt lat="43.11098" lon="-1.44101">
        <ele>706.8</ele>
        <time>2022-07-19T10:46:53Z</time>
      </trkpt>
      <trkpt lat="43.11112" lon="-1.44078">
        <ele>703.3</ele>
        <time>2022-07-19T10:46:56Z</time>
      </trkpt>
      <trkpt lat="43.11129" lon="-1.44051">
        <ele>698.9</ele>
        <time>2022-07-19T10:46:59Z</time>
      </trkpt>
      <trkpt lat="43.11142" lon="-1.44031">
        <ele>695.9</ele>
        <time>2022-07-19T10:47:01Z</time>
      </trkpt>
      <trkpt lat="43.11154" lon="-1.44011">
        <ele>692.5</ele>
        <time>2022-07-19T10:47:03Z</time>
      </trkpt>
      <trkpt lat="43.11167" lon="-1.43991">
        <ele>689.3</ele>
        <time>2022-07-19T10:47:05Z</time>
      </trkpt>
      <trkpt lat="43.11181" lon="-1.43971">
        <ele>686.9</ele>
        <time>2022-07-19T10:47:07Z</time>
      </trkpt>
      <trkpt lat="43.11195" lon="-1.43951">
        <ele>683.9</ele>
        <time>2022-07-19T10:47:09Z</time>
      </trkpt>
      <trkpt lat="43.11209" lon="-1.43925">
        <ele>682.4</ele>
        <time>2022-07-19T10:47:12Z</time>
      </trkpt>
      <trkpt lat="43.1122" lon="-1.43905">
        <ele>683.6</ele>
        <time>2022-07-19T10:48:22Z</time>
      </trkpt>
      <trkpt lat="43.11238" lon="-1.43903">
        <ele>682.6</ele>
        <time>2022-07-19T10:48:32Z</time>
      </trkpt>
      <trkpt lat="43.11256" lon="-1.43904">
        <ele>681.7</ele>
        <time>2022-07-19T10:48:40Z</time>
      </trkpt>
      <trkpt lat="43.11275" lon="-1.43902">
        <ele>681.3</ele>
        <time>2022-07-19T10:48:47Z</time>
      </trkpt>
      <trkpt lat="43.11294" lon="-1.43896">
        <ele>680.6</ele>
        <time>2022-07-19T10:48:54Z</time>
      </trkpt>
      <trkpt lat="43.11315" lon="-1.4389">
        <ele>679.4</ele>
        <time>2022-07-19T10:49:03Z</time>
      </trkpt>
      <trkpt lat="43.11333" lon="-1.43884">
        <ele>678.7</ele>
        <time>2022-07-19T10:49:09Z</time>
      </trkpt>
      <trkpt lat="43.11351" lon="-1.43883">
        <ele>677.6</ele>
        <time>2022-07-19T10:49:15Z</time>
      </trkpt>
      <trkpt lat="43.11371" lon="-1.43883">
        <ele>678.5</ele>
        <time>2022-07-19T10:49:21Z</time>
      </trkpt>
      <trkpt lat="43.11389" lon="-1.43881">
        <ele>679.3</ele>
        <time>2022-07-19T10:49:28Z</time>
      </trkpt>
      <trkpt lat="43.11408" lon="-1.43884">
        <ele>679.2</ele>
        <time>2022-07-19T10:49:35Z</time>
      </trkpt>
      <trkpt lat="43.11429" lon="-1.43888">
        <ele>679.1</ele>
        <time>2022-07-19T10:49:42Z</time>
      </trkpt>
      <trkpt lat="43.11449" lon="-1.43889">
        <ele>676.9</ele>
        <time>2022-07-19T10:49:49Z</time>
      </trkpt>
      <trkpt lat="43.11468" lon="-1.43889">
        <ele>675.8</ele>
        <time>2022-07-19T10:49:57Z</time>
      </trkpt>
      <trkpt lat="43.11487" lon="-1.43881">
        <ele>674.3</ele>
        <time>2022-07-19T10:50:07Z</time>
      </trkpt>
      <trkpt lat="43.11504" lon="-1.43872">
        <ele>674.5</ele>
        <time>2022-07-19T10:50:20Z</time>
      </trkpt>
      <trkpt lat="43.11522" lon="-1.43869">
        <ele>682.7</ele>
        <time>2022-07-19T10:50:33Z</time>
      </trkpt>
      <trkpt lat="43.11541" lon="-1.43865">
        <ele>688.2</ele>
        <time>2022-07-19T10:50:47Z</time>
      </trkpt>
      <trkpt lat="43.1156" lon="-1.43861">
        <ele>693.5</ele>
        <time>2022-07-19T10:50:58Z</time>
      </trkpt>
      <trkpt lat="43.11577" lon="-1.43852">
        <ele>696.3</ele>
        <time>2022-07-19T10:51:10Z</time>
      </trkpt>
      <trkpt lat="43.11595" lon="-1.43843">
        <ele>694.8</ele>
        <time>2022-07-19T10:51:21Z</time>
      </trkpt>
      <trkpt lat="43.11609" lon="-1.43825">
        <ele>693.7</ele>
        <time>2022-07-19T10:51:31Z</time>
      </trkpt>
      <trkpt lat="43.11624" lon="-1.43807">
        <ele>693.8</ele>
        <time>2022-07-19T10:51:41Z</time>
      </trkpt>
      <trkpt lat="43.11636" lon="-1.43785">
        <ele>694.4</ele>
        <time>2022-07-19T10:52:26Z</time>
      </trkpt>
      <trkpt lat="43.11647" lon="-1.43762">
        <ele>691</ele>
        <time>2022-07-19T10:52:32Z</time>
      </trkpt>
      <trkpt lat="43.11658" lon="-1.43737">
        <ele>690.9</ele>
        <time>2022-07-19T10:52:42Z</time>
      </trkpt>
      <trkpt lat="43.11671" lon="-1.43721">
        <ele>693.3</ele>
        <time>2022-07-19T10:52:56Z</time>
      </trkpt>
      <trkpt lat="43.11681" lon="-1.43743">
        <ele>685.6</ele>
        <time>2022-07-19T10:53:12Z</time>
      </trkpt>
      <trkpt lat="43.11698" lon="-1.43754">
        <ele>683.5</ele>
        <time>2022-07-19T10:53:19Z</time>
      </trkpt>
      <trkpt lat="43.11717" lon="-1.43752">
        <ele>684.8</ele>
        <time>2022-07-19T10:53:26Z</time>
      </trkpt>
      <trkpt lat="43.11735" lon="-1.43742">
        <ele>680.9</ele>
        <time>2022-07-19T10:53:33Z</time>
      </trkpt>
      <trkpt lat="43.11748" lon="-1.43722">
        <ele>681.2</ele>
        <time>2022-07-19T10:53:43Z</time>
      </trkpt>
      <trkpt lat="43.11765" lon="-1.43719">
        <ele>682.1</ele>
        <time>2022-07-19T10:53:51Z</time>
      </trkpt>
      <trkpt lat="43.11777" lon="-1.43741">
        <ele>680.2</ele>
        <time>2022-07-19T10:53:59Z</time>
      </trkpt>
      <trkpt lat="43.1179" lon="-1.43759">
        <ele>681.6</ele>
        <time>2022-07-19T10:54:31Z</time>
      </trkpt>
      <trkpt lat="43.11805" lon="-1.43778">
        <ele>677</ele>
        <time>2022-07-19T10:54:38Z</time>
      </trkpt>
      <trkpt lat="43.11825" lon="-1.43784">
        <ele>676.7</ele>
        <time>2022-07-19T10:54:44Z</time>
      </trkpt>
      <trkpt lat="43.11844" lon="-1.43785">
        <ele>675</ele>
        <time>2022-07-19T10:54:50Z</time>
      </trkpt>
      <trkpt lat="43.11862" lon="-1.4379">
        <ele>676.9</ele>
        <time>2022-07-19T10:54:56Z</time>
      </trkpt>
      <trkpt lat="43.11883" lon="-1.43788">
        <ele>680.9</ele>
        <time>2022-07-19T10:55:04Z</time>
      </trkpt>
      <trkpt lat="43.11903" lon="-1.43779">
        <ele>685</ele>
        <time>2022-07-19T10:55:11Z</time>
      </trkpt>
      <trkpt lat="43.1192" lon="-1.43764">
        <ele>687.2</ele>
        <time>2022-07-19T10:55:19Z</time>
      </trkpt>
      <trkpt lat="43.11939" lon="-1.43759">
        <ele>690.6</ele>
        <time>2022-07-19T10:55:29Z</time>
      </trkpt>
      <trkpt lat="43.11958" lon="-1.43763">
        <ele>691.3</ele>
        <time>2022-07-19T10:55:36Z</time>
      </trkpt>
      <trkpt lat="43.11976" lon="-1.43764">
        <ele>693.7</ele>
        <time>2022-07-19T10:55:45Z</time>
      </trkpt>
      <trkpt lat="43.11994" lon="-1.43752">
        <ele>697.3</ele>
        <time>2022-07-19T10:55:57Z</time>
      </trkpt>
      <trkpt lat="43.1201" lon="-1.43739">
        <ele>696.5</ele>
        <time>2022-07-19T10:56:05Z</time>
      </trkpt>
      <trkpt lat="43.12024" lon="-1.43721">
        <ele>687.2</ele>
        <time>2022-07-19T10:56:12Z</time>
      </trkpt>
      <trkpt lat="43.12039" lon="-1.43735">
        <ele>687.6</ele>
        <time>2022-07-19T10:56:24Z</time>
      </trkpt>
      <trkpt lat="43.12054" lon="-1.43752">
        <ele>686</ele>
        <time>2022-07-19T10:56:30Z</time>
      </trkpt>
      <trkpt lat="43.12068" lon="-1.43772">
        <ele>682.5</ele>
        <time>2022-07-19T10:56:37Z</time>
      </trkpt>
      <trkpt lat="43.1208" lon="-1.43796">
        <ele>679.6</ele>
        <time>2022-07-19T10:56:44Z</time>
      </trkpt>
      <trkpt lat="43.12095" lon="-1.43815">
        <ele>676.8</ele>
        <time>2022-07-19T10:56:49Z</time>
      </trkpt>
      <trkpt lat="43.12111" lon="-1.43828">
        <ele>677.1</ele>
        <time>2022-07-19T10:56:55Z</time>
      </trkpt>
      <trkpt lat="43.12127" lon="-1.43841">
        <ele>678.8</ele>
        <time>2022-07-19T10:57:01Z</time>
      </trkpt>
      <trkpt lat="43.12139" lon="-1.43863">
        <ele>681.5</ele>
        <time>2022-07-19T10:57:08Z</time>
      </trkpt>
      <trkpt lat="43.12142" lon="-1.4389">
        <ele>680.5</ele>
        <time>2022-07-19T10:57:15Z</time>
      </trkpt>
      <trkpt lat="43.12143" lon="-1.43917">
        <ele>678.5</ele>
        <time>2022-07-19T10:57:22Z</time>
      </trkpt>
      <trkpt lat="43.1215" lon="-1.43941">
        <ele>680.5</ele>
        <time>2022-07-19T10:57:31Z</time>
      </trkpt>
      <trkpt lat="43.12159" lon="-1.43963">
        <ele>682.7</ele>
        <time>2022-07-19T10:57:42Z</time>
      </trkpt>
      <trkpt lat="43.12163" lon="-1.43988">
        <ele>685.4</ele>
        <time>2022-07-19T10:57:54Z</time>
      </trkpt>
      <trkpt lat="43.12167" lon="-1.44014">
        <ele>686.1</ele>
        <time>2022-07-19T10:58:07Z</time>
      </trkpt>
      <trkpt lat="43.12172" lon="-1.4404">
        <ele>689.7</ele>
        <time>2022-07-19T10:58:18Z</time>
      </trkpt>
      <trkpt lat="43.12183" lon="-1.44061">
        <ele>689.1</ele>
        <time>2022-07-19T10:58:28Z</time>
      </trkpt>
      <trkpt lat="43.12195" lon="-1.44079">
        <ele>686.5</ele>
        <time>2022-07-19T10:58:36Z</time>
      </trkpt>
      <trkpt lat="43.12205" lon="-1.44104">
        <ele>686.2</ele>
        <time>2022-07-19T10:58:44Z</time>
      </trkpt>
      <trkpt lat="43.12213" lon="-1.44128">
        <ele>688.5</ele>
        <time>2022-07-19T10:58:52Z</time>
      </trkpt>
      <trkpt lat="43.1222" lon="-1.44153">
        <ele>687.8</ele>
        <time>2022-07-19T10:59:00Z</time>
      </trkpt>
      <trkpt lat="43.12212" lon="-1.44176">
        <ele>693.4</ele>
        <time>2022-07-19T10:59:07Z</time>
      </trkpt>
      <trkpt lat="43.12206" lon="-1.44201">
        <ele>699.3</ele>
        <time>2022-07-19T10:59:15Z</time>
      </trkpt>
      <trkpt lat="43.12205" lon="-1.44228">
        <ele>703.2</ele>
        <time>2022-07-19T10:59:24Z</time>
      </trkpt>
      <trkpt lat="43.12221" lon="-1.44244">
        <ele>705</ele>
        <time>2022-07-19T10:59:33Z</time>
      </trkpt>
      <trkpt lat="43.12239" lon="-1.44252">
        <ele>702</ele>
        <time>2022-07-19T10:59:41Z</time>
      </trkpt>
      <trkpt lat="43.12259" lon="-1.44256">
        <ele>702.6</ele>
        <time>2022-07-19T11:00:37Z</time>
      </trkpt>
      <trkpt lat="43.12276" lon="-1.44271">
        <ele>701.7</ele>
        <time>2022-07-19T11:00:43Z</time>
      </trkpt>
      <trkpt lat="43.12291" lon="-1.4429">
        <ele>699.7</ele>
        <time>2022-07-19T11:00:48Z</time>
      </trkpt>
      <trkpt lat="43.12299" lon="-1.44313">
        <ele>700.7</ele>
        <time>2022-07-19T11:00:53Z</time>
      </trkpt>
      <trkpt lat="43.12309" lon="-1.44338">
        <ele>703.4</ele>
        <time>2022-07-19T11:01:00Z</time>
      </trkpt>
      <trkpt lat="43.12327" lon="-1.4435">
        <ele>702.6</ele>
        <time>2022-07-19T11:01:06Z</time>
      </trkpt>
      <trkpt lat="43.12344" lon="-1.44355">
        <ele>701.1</ele>
        <time>2022-07-19T11:01:12Z</time>
      </trkpt>
      <trkpt lat="43.12364" lon="-1.44353">
        <ele>701.4</ele>
        <time>2022-07-19T11:01:18Z</time>
      </trkpt>
      <trkpt lat="43.12382" lon="-1.44356">
        <ele>700.1</ele>
        <time>2022-07-19T11:01:23Z</time>
      </trkpt>
      <trkpt lat="43.12404" lon="-1.44359">
        <ele>699.9</ele>
        <time>2022-07-19T11:01:29Z</time>
      </trkpt>
      <trkpt lat="43.12423" lon="-1.44362">
        <ele>701.3</ele>
        <time>2022-07-19T11:01:34Z</time>
      </trkpt>
      <trkpt lat="43.12444" lon="-1.44362">
        <ele>701.5</ele>
        <time>2022-07-19T11:01:40Z</time>
      </trkpt>
      <trkpt lat="43.12462" lon="-1.44365">
        <ele>700.2</ele>
        <time>2022-07-19T11:01:45Z</time>
      </trkpt>
      <trkpt lat="43.1248" lon="-1.44373">
        <ele>700.8</ele>
        <time>2022-07-19T11:01:51Z</time>
      </trkpt>
      <trkpt lat="43.1249" lon="-1.44397">
        <ele>701.8</ele>
        <time>2022-07-19T11:02:01Z</time>
      </trkpt>
      <trkpt lat="43.12495" lon="-1.44424">
        <ele>695.8</ele>
        <time>2022-07-19T11:02:09Z</time>
      </trkpt>
      <trkpt lat="43.12494" lon="-1.44453">
        <ele>696</ele>
        <time>2022-07-19T11:02:14Z</time>
      </trkpt>
      <trkpt lat="43.12489" lon="-1.44479">
        <ele>695.9</ele>
        <time>2022-07-19T11:02:18Z</time>
      </trkpt>
      <trkpt lat="43.125" lon="-1.44501">
        <ele>695.9</ele>
        <time>2022-07-19T11:02:24Z</time>
      </trkpt>
      <trkpt lat="43.12511" lon="-1.44523">
        <ele>696</ele>
        <time>2022-07-19T11:02:31Z</time>
      </trkpt>
      <trkpt lat="43.12522" lon="-1.44546">
        <ele>695.5</ele>
        <time>2022-07-19T11:02:38Z</time>
      </trkpt>
      <trkpt lat="43.12532" lon="-1.44566">
        <ele>697</ele>
        <time>2022-07-19T11:02:44Z</time>
      </trkpt>
      <trkpt lat="43.12537" lon="-1.44593">
        <ele>696.3</ele>
        <time>2022-07-19T11:02:51Z</time>
      </trkpt>
      <trkpt lat="43.12542" lon="-1.44618">
        <ele>696.9</ele>
        <time>2022-07-19T11:02:58Z</time>
      </trkpt>
      <trkpt lat="43.12549" lon="-1.44641">
        <ele>695.6</ele>
        <time>2022-07-19T11:03:04Z</time>
      </trkpt>
      <trkpt lat="43.12556" lon="-1.44663">
        <ele>698.5</ele>
        <time>2022-07-19T11:03:10Z</time>
      </trkpt>
      <trkpt lat="43.12568" lon="-1.44684">
        <ele>700.4</ele>
        <time>2022-07-19T11:03:17Z</time>
      </trkpt>
      <trkpt lat="43.12581" lon="-1.44702">
        <ele>701.4</ele>
        <time>2022-07-19T11:03:25Z</time>
      </trkpt>
      <trkpt lat="43.12586" lon="-1.44728">
        <ele>703</ele>
        <time>2022-07-19T11:03:34Z</time>
      </trkpt>
      <trkpt lat="43.12595" lon="-1.44751">
        <ele>700.8</ele>
        <time>2022-07-19T11:03:38Z</time>
      </trkpt>
      <trkpt lat="43.12601" lon="-1.44776">
        <ele>701.1</ele>
        <time>2022-07-19T11:03:42Z</time>
      </trkpt>
      <trkpt lat="43.12611" lon="-1.44802">
        <ele>700</ele>
        <time>2022-07-19T11:03:46Z</time>
      </trkpt>
      <trkpt lat="43.12627" lon="-1.44827">
        <ele>695.9</ele>
        <time>2022-07-19T11:03:50Z</time>
      </trkpt>
      <trkpt lat="43.12643" lon="-1.44844">
        <ele>691.3</ele>
        <time>2022-07-19T11:03:54Z</time>
      </trkpt>
      <trkpt lat="43.12659" lon="-1.44862">
        <ele>685.1</ele>
        <time>2022-07-19T11:03:59Z</time>
      </trkpt>
      <trkpt lat="43.12676" lon="-1.44881">
        <ele>681.6</ele>
        <time>2022-07-19T11:04:03Z</time>
      </trkpt>
      <trkpt lat="43.12693" lon="-1.44896">
        <ele>678.4</ele>
        <time>2022-07-19T11:04:06Z</time>
      </trkpt>
      <trkpt lat="43.12714" lon="-1.44913">
        <ele>674.7</ele>
        <time>2022-07-19T11:04:09Z</time>
      </trkpt>
      <trkpt lat="43.12731" lon="-1.44923">
        <ele>672.5</ele>
        <time>2022-07-19T11:04:11Z</time>
      </trkpt>
      <trkpt lat="43.12747" lon="-1.44936">
        <ele>671.6</ele>
        <time>2022-07-19T11:04:13Z</time>
      </trkpt>
      <trkpt lat="43.12764" lon="-1.44957">
        <ele>671.5</ele>
        <time>2022-07-19T11:04:16Z</time>
      </trkpt>
      <trkpt lat="43.12764" lon="-1.44985">
        <ele>671.5</ele>
        <time>2022-07-19T11:04:20Z</time>
      </trkpt>
      <trkpt lat="43.12762" lon="-1.4501">
        <ele>671.3</ele>
        <time>2022-07-19T11:04:25Z</time>
      </trkpt>
      <trkpt lat="43.12765" lon="-1.45039">
        <ele>671.9</ele>
        <time>2022-07-19T11:05:02Z</time>
      </trkpt>
      <trkpt lat="43.12771" lon="-1.45066">
        <ele>669.1</ele>
        <time>2022-07-19T11:05:07Z</time>
      </trkpt>
      <trkpt lat="43.1278" lon="-1.45089">
        <ele>668.5</ele>
        <time>2022-07-19T11:05:13Z</time>
      </trkpt>
      <trkpt lat="43.12786" lon="-1.45113">
        <ele>666.5</ele>
        <time>2022-07-19T11:05:19Z</time>
      </trkpt>
      <trkpt lat="43.12795" lon="-1.45135">
        <ele>666.3</ele>
        <time>2022-07-19T11:05:25Z</time>
      </trkpt>
      <trkpt lat="43.12804" lon="-1.45157">
        <ele>667.4</ele>
        <time>2022-07-19T11:05:31Z</time>
      </trkpt>
      <trkpt lat="43.12812" lon="-1.45181">
        <ele>668.2</ele>
        <time>2022-07-19T11:05:37Z</time>
      </trkpt>
      <trkpt lat="43.12819" lon="-1.45206">
        <ele>669.3</ele>
        <time>2022-07-19T11:05:44Z</time>
      </trkpt>
      <trkpt lat="43.12827" lon="-1.45232">
        <ele>671.1</ele>
        <time>2022-07-19T11:05:52Z</time>
      </trkpt>
      <trkpt lat="43.12838" lon="-1.45256">
        <ele>671</ele>
        <time>2022-07-19T11:05:59Z</time>
      </trkpt>
      <trkpt lat="43.12847" lon="-1.45278">
        <ele>671.8</ele>
        <time>2022-07-19T11:06:05Z</time>
      </trkpt>
      <trkpt lat="43.12859" lon="-1.45296">
        <ele>672.3</ele>
        <time>2022-07-19T11:06:12Z</time>
      </trkpt>
      <trkpt lat="43.12871" lon="-1.45316">
        <ele>671.3</ele>
        <time>2022-07-19T11:06:21Z</time>
      </trkpt>
      <trkpt lat="43.12881" lon="-1.45339">
        <ele>672.1</ele>
        <time>2022-07-19T11:06:31Z</time>
      </trkpt>
      <trkpt lat="43.12891" lon="-1.45361">
        <ele>673.9</ele>
        <time>2022-07-19T11:06:41Z</time>
      </trkpt>
      <trkpt lat="43.12906" lon="-1.4538">
        <ele>674</ele>
        <time>2022-07-19T11:06:51Z</time>
      </trkpt>
      <trkpt lat="43.12919" lon="-1.45397">
        <ele>675.3</ele>
        <time>2022-07-19T11:07:25Z</time>
      </trkpt>
      <trkpt lat="43.1293" lon="-1.45417">
        <ele>674.7</ele>
        <time>2022-07-19T11:07:32Z</time>
      </trkpt>
      <trkpt lat="43.1294" lon="-1.4544">
        <ele>674.8</ele>
        <time>2022-07-19T11:07:38Z</time>
      </trkpt>
      <trkpt lat="43.12952" lon="-1.45459">
        <ele>674.9</ele>
        <time>2022-07-19T11:07:44Z</time>
      </trkpt>
      <trkpt lat="43.12965" lon="-1.45479">
        <ele>674.2</ele>
        <time>2022-07-19T11:07:50Z</time>
      </trkpt>
      <trkpt lat="43.12976" lon="-1.455">
        <ele>672</ele>
        <time>2022-07-19T11:07:55Z</time>
      </trkpt>
      <trkpt lat="43.12988" lon="-1.45526">
        <ele>672.5</ele>
        <time>2022-07-19T11:08:01Z</time>
      </trkpt>
      <trkpt lat="43.12995" lon="-1.4555">
        <ele>671.3</ele>
        <time>2022-07-19T11:08:05Z</time>
      </trkpt>
      <trkpt lat="43.13001" lon="-1.45574">
        <ele>672.8</ele>
        <time>2022-07-19T11:08:10Z</time>
      </trkpt>
      <trkpt lat="43.13011" lon="-1.45596">
        <ele>670.9</ele>
        <time>2022-07-19T11:08:16Z</time>
      </trkpt>
      <trkpt lat="43.13017" lon="-1.45622">
        <ele>671</ele>
        <time>2022-07-19T11:08:22Z</time>
      </trkpt>
      <trkpt lat="43.13027" lon="-1.45644">
        <ele>672.6</ele>
        <time>2022-07-19T11:08:28Z</time>
      </trkpt>
      <trkpt lat="43.13037" lon="-1.45668">
        <ele>673</ele>
        <time>2022-07-19T11:08:36Z</time>
      </trkpt>
      <trkpt lat="43.13048" lon="-1.45692">
        <ele>671.8</ele>
        <time>2022-07-19T11:08:44Z</time>
      </trkpt>
      <trkpt lat="43.13059" lon="-1.45716">
        <ele>673.5</ele>
        <time>2022-07-19T11:08:51Z</time>
      </trkpt>
      <trkpt lat="43.1307" lon="-1.45736">
        <ele>673.7</ele>
        <time>2022-07-19T11:08:58Z</time>
      </trkpt>
      <trkpt lat="43.13079" lon="-1.45759">
        <ele>675.5</ele>
        <time>2022-07-19T11:09:43Z</time>
      </trkpt>
      <trkpt lat="43.13089" lon="-1.45781">
        <ele>676.3</ele>
        <time>2022-07-19T11:09:50Z</time>
      </trkpt>
      <trkpt lat="43.13094" lon="-1.45807">
        <ele>676.3</ele>
        <time>2022-07-19T11:09:57Z</time>
      </trkpt>
      <trkpt lat="43.13091" lon="-1.45833">
        <ele>677.5</ele>
        <time>2022-07-19T11:10:04Z</time>
      </trkpt>
      <trkpt lat="43.13096" lon="-1.45858">
        <ele>679</ele>
        <time>2022-07-19T11:10:11Z</time>
      </trkpt>
      <trkpt lat="43.13102" lon="-1.45882">
        <ele>678.2</ele>
        <time>2022-07-19T11:10:18Z</time>
      </trkpt>
      <trkpt lat="43.13107" lon="-1.45908">
        <ele>677.5</ele>
        <time>2022-07-19T11:10:24Z</time>
      </trkpt>
      <trkpt lat="43.131" lon="-1.45934">
        <ele>678.4</ele>
        <time>2022-07-19T11:10:31Z</time>
      </trkpt>
      <trkpt lat="43.13101" lon="-1.4596">
        <ele>679.8</ele>
        <time>2022-07-19T11:10:38Z</time>
      </trkpt>
      <trkpt lat="43.13105" lon="-1.45986">
        <ele>683.2</ele>
        <time>2022-07-19T11:10:46Z</time>
      </trkpt>
      <trkpt lat="43.13112" lon="-1.4601">
        <ele>683</ele>
        <time>2022-07-19T11:10:53Z</time>
      </trkpt>
      <trkpt lat="43.13113" lon="-1.46035">
        <ele>684.7</ele>
        <time>2022-07-19T11:11:00Z</time>
      </trkpt>
      <trkpt lat="43.13098" lon="-1.46055">
        <ele>687.8</ele>
        <time>2022-07-19T11:11:08Z</time>
      </trkpt>
      <trkpt lat="43.13097" lon="-1.4608">
        <ele>690.3</ele>
        <time>2022-07-19T11:11:16Z</time>
      </trkpt>
      <trkpt lat="43.13113" lon="-1.46096">
        <ele>689.9</ele>
        <time>2022-07-19T11:11:25Z</time>
      </trkpt>
      <trkpt lat="43.13124" lon="-1.46117">
        <ele>689.2</ele>
        <time>2022-07-19T11:11:34Z</time>
      </trkpt>
      <trkpt lat="43.1314" lon="-1.46131">
        <ele>687.8</ele>
        <time>2022-07-19T11:12:03Z</time>
      </trkpt>
      <trkpt lat="43.13151" lon="-1.46154">
        <ele>686.3</ele>
        <time>2022-07-19T11:12:08Z</time>
      </trkpt>
      <trkpt lat="43.13172" lon="-1.46159">
        <ele>685.6</ele>
        <time>2022-07-19T11:12:13Z</time>
      </trkpt>
      <trkpt lat="43.13188" lon="-1.46174">
        <ele>684.7</ele>
        <time>2022-07-19T11:12:19Z</time>
      </trkpt>
      <trkpt lat="43.13203" lon="-1.46188">
        <ele>683.5</ele>
        <time>2022-07-19T11:12:24Z</time>
      </trkpt>
      <trkpt lat="43.13211" lon="-1.46212">
        <ele>685.2</ele>
        <time>2022-07-19T11:12:30Z</time>
      </trkpt>
      <trkpt lat="43.13214" lon="-1.46239">
        <ele>685.3</ele>
        <time>2022-07-19T11:12:34Z</time>
      </trkpt>
      <trkpt lat="43.13214" lon="-1.46266">
        <ele>687.1</ele>
        <time>2022-07-19T11:12:38Z</time>
      </trkpt>
      <trkpt lat="43.13215" lon="-1.46292">
        <ele>690.1</ele>
        <time>2022-07-19T11:12:45Z</time>
      </trkpt>
      <trkpt lat="43.13215" lon="-1.4632">
        <ele>691.1</ele>
        <time>2022-07-19T11:12:53Z</time>
      </trkpt>
      <trkpt lat="43.1322" lon="-1.46346">
        <ele>689.2</ele>
        <time>2022-07-19T11:12:59Z</time>
      </trkpt>
      <trkpt lat="43.13227" lon="-1.46374">
        <ele>687.5</ele>
        <time>2022-07-19T11:13:04Z</time>
      </trkpt>
      <trkpt lat="43.1324" lon="-1.46397">
        <ele>686.4</ele>
        <time>2022-07-19T11:13:09Z</time>
      </trkpt>
      <trkpt lat="43.13247" lon="-1.46424">
        <ele>681.9</ele>
        <time>2022-07-19T11:13:14Z</time>
      </trkpt>
      <trkpt lat="43.13261" lon="-1.46446">
        <ele>682.3</ele>
        <time>2022-07-19T11:13:19Z</time>
      </trkpt>
      <trkpt lat="43.13277" lon="-1.46466">
        <ele>682</ele>
        <time>2022-07-19T11:13:23Z</time>
      </trkpt>
      <trkpt lat="43.13292" lon="-1.46485">
        <ele>680.8</ele>
        <time>2022-07-19T11:13:27Z</time>
      </trkpt>
      <trkpt lat="43.13308" lon="-1.4651">
        <ele>679.6</ele>
        <time>2022-07-19T11:13:32Z</time>
      </trkpt>
      <trkpt lat="43.13323" lon="-1.46524">
        <ele>669</ele>
        <time>2022-07-19T11:13:59Z</time>
      </trkpt>
      <trkpt lat="43.13341" lon="-1.46538">
        <ele>663.2</ele>
        <time>2022-07-19T11:14:39Z</time>
      </trkpt>
      <trkpt lat="43.1336" lon="-1.46545">
        <ele>664.5</ele>
        <time>2022-07-19T11:14:44Z</time>
      </trkpt>
      <trkpt lat="43.13369" lon="-1.46571">
        <ele>659.7</ele>
        <time>2022-07-19T11:14:51Z</time>
      </trkpt>
      <trkpt lat="43.13379" lon="-1.46595">
        <ele>660.9</ele>
        <time>2022-07-19T11:14:54Z</time>
      </trkpt>
      <trkpt lat="43.13382" lon="-1.4662">
        <ele>657.6</ele>
        <time>2022-07-19T11:14:58Z</time>
      </trkpt>
      <trkpt lat="43.13384" lon="-1.4665">
        <ele>658.8</ele>
        <time>2022-07-19T11:15:04Z</time>
      </trkpt>
      <trkpt lat="43.13389" lon="-1.46675">
        <ele>659.6</ele>
        <time>2022-07-19T11:15:07Z</time>
      </trkpt>
      <trkpt lat="43.13399" lon="-1.46696">
        <ele>660.7</ele>
        <time>2022-07-19T11:15:10Z</time>
      </trkpt>
      <trkpt lat="43.13412" lon="-1.46718">
        <ele>659.6</ele>
        <time>2022-07-19T11:15:16Z</time>
      </trkpt>
      <trkpt lat="43.13425" lon="-1.46739">
        <ele>657.3</ele>
        <time>2022-07-19T11:15:21Z</time>
      </trkpt>
      <trkpt lat="43.13438" lon="-1.46757">
        <ele>657.9</ele>
        <time>2022-07-19T11:15:25Z</time>
      </trkpt>
      <trkpt lat="43.13451" lon="-1.46777">
        <ele>657.4</ele>
        <time>2022-07-19T11:15:30Z</time>
      </trkpt>
      <trkpt lat="43.13464" lon="-1.468">
        <ele>654.7</ele>
        <time>2022-07-19T11:15:35Z</time>
      </trkpt>
      <trkpt lat="43.13477" lon="-1.46822">
        <ele>652.1</ele>
        <time>2022-07-19T11:15:40Z</time>
      </trkpt>
      <trkpt lat="43.13488" lon="-1.46844">
        <ele>649.5</ele>
        <time>2022-07-19T11:15:45Z</time>
      </trkpt>
      <trkpt lat="43.13499" lon="-1.46868">
        <ele>648.3</ele>
        <time>2022-07-19T11:15:51Z</time>
      </trkpt>
      <trkpt lat="43.13511" lon="-1.46891">
        <ele>646</ele>
        <time>2022-07-19T11:15:56Z</time>
      </trkpt>
      <trkpt lat="43.13525" lon="-1.4691">
        <ele>645.2</ele>
        <time>2022-07-19T11:16:00Z</time>
      </trkpt>
      <trkpt lat="43.13534" lon="-1.46937">
        <ele>641.5</ele>
        <time>2022-07-19T11:16:05Z</time>
      </trkpt>
      <trkpt lat="43.13541" lon="-1.46964">
        <ele>638.2</ele>
        <time>2022-07-19T11:16:08Z</time>
      </trkpt>
      <trkpt lat="43.13544" lon="-1.46994">
        <ele>633.3</ele>
        <time>2022-07-19T11:16:11Z</time>
      </trkpt>
      <trkpt lat="43.13548" lon="-1.47023">
        <ele>631.1</ele>
        <time>2022-07-19T11:16:14Z</time>
      </trkpt>
      <trkpt lat="43.13559" lon="-1.47042">
        <ele>627.8</ele>
        <time>2022-07-19T11:18:33Z</time>
      </trkpt>
      <trkpt lat="43.13577" lon="-1.47047">
        <ele>631.1</ele>
        <time>2022-07-19T11:18:45Z</time>
      </trkpt>
      <trkpt lat="43.13596" lon="-1.47044">
        <ele>635.7</ele>
        <time>2022-07-19T11:18:59Z</time>
      </trkpt>
      <trkpt lat="43.13614" lon="-1.47047">
        <ele>638</ele>
        <time>2022-07-19T11:19:11Z</time>
      </trkpt>
      <trkpt lat="43.13634" lon="-1.47044">
        <ele>636</ele>
        <time>2022-07-19T11:19:22Z</time>
      </trkpt>
      <trkpt lat="43.13652" lon="-1.47032">
        <ele>636</ele>
        <time>2022-07-19T11:19:28Z</time>
      </trkpt>
      <trkpt lat="43.13675" lon="-1.47038">
        <ele>635</ele>
        <time>2022-07-19T11:19:34Z</time>
      </trkpt>
      <trkpt lat="43.13695" lon="-1.47042">
        <ele>633.5</ele>
        <time>2022-07-19T11:19:40Z</time>
      </trkpt>
      <trkpt lat="43.13706" lon="-1.47063">
        <ele>634</ele>
        <time>2022-07-19T11:19:48Z</time>
      </trkpt>
      <trkpt lat="43.13707" lon="-1.47088">
        <ele>632.2</ele>
        <time>2022-07-19T11:19:55Z</time>
      </trkpt>
      <trkpt lat="43.13705" lon="-1.47115">
        <ele>628.3</ele>
        <time>2022-07-19T11:20:01Z</time>
      </trkpt>
      <trkpt lat="43.13701" lon="-1.47139">
        <ele>625.9</ele>
        <time>2022-07-19T11:20:06Z</time>
      </trkpt>
      <trkpt lat="43.13707" lon="-1.47162">
        <ele>624.6</ele>
        <time>2022-07-19T11:20:11Z</time>
      </trkpt>
      <trkpt lat="43.13709" lon="-1.47189">
        <ele>624</ele>
        <time>2022-07-19T11:20:16Z</time>
      </trkpt>
      <trkpt lat="43.13717" lon="-1.47212">
        <ele>623.5</ele>
        <time>2022-07-19T11:20:26Z</time>
      </trkpt>
      <trkpt lat="43.13725" lon="-1.47235">
        <ele>626.8</ele>
        <time>2022-07-19T11:20:34Z</time>
      </trkpt>
      <trkpt lat="43.13735" lon="-1.4726">
        <ele>629</ele>
        <time>2022-07-19T11:20:42Z</time>
      </trkpt>
      <trkpt lat="43.13745" lon="-1.47284">
        <ele>627.8</ele>
        <time>2022-07-19T11:20:47Z</time>
      </trkpt>
      <trkpt lat="43.13749" lon="-1.47308">
        <ele>625.9</ele>
        <time>2022-07-19T11:20:53Z</time>
      </trkpt>
      <trkpt lat="43.13755" lon="-1.47334">
        <ele>626.7</ele>
        <time>2022-07-19T11:21:02Z</time>
      </trkpt>
      <trkpt lat="43.13758" lon="-1.47359">
        <ele>627.9</ele>
        <time>2022-07-19T11:21:12Z</time>
      </trkpt>
      <trkpt lat="43.13758" lon="-1.47385">
        <ele>622</ele>
        <time>2022-07-19T11:21:24Z</time>
      </trkpt>
      <trkpt lat="43.13757" lon="-1.47414">
        <ele>621.3</ele>
        <time>2022-07-19T11:21:49Z</time>
      </trkpt>
      <trkpt lat="43.13761" lon="-1.47438">
        <ele>621.4</ele>
        <time>2022-07-19T11:21:55Z</time>
      </trkpt>
      <trkpt lat="43.13771" lon="-1.4746">
        <ele>620.3</ele>
        <time>2022-07-19T11:22:03Z</time>
      </trkpt>
      <trkpt lat="43.13777" lon="-1.47484">
        <ele>618</ele>
        <time>2022-07-19T11:22:12Z</time>
      </trkpt>
      <trkpt lat="43.1379" lon="-1.47502">
        <ele>620</ele>
        <time>2022-07-19T11:22:20Z</time>
      </trkpt>
      <trkpt lat="43.13803" lon="-1.4752">
        <ele>623.1</ele>
        <time>2022-07-19T11:22:30Z</time>
      </trkpt>
      <trkpt lat="43.13815" lon="-1.47539">
        <ele>624.8</ele>
        <time>2022-07-19T11:22:40Z</time>
      </trkpt>
      <trkpt lat="43.13822" lon="-1.47563">
        <ele>626</ele>
        <time>2022-07-19T11:22:49Z</time>
      </trkpt>
      <trkpt lat="43.13832" lon="-1.47586">
        <ele>631</ele>
        <time>2022-07-19T11:23:14Z</time>
      </trkpt>
      <trkpt lat="43.13846" lon="-1.47604">
        <ele>632.4</ele>
        <time>2022-07-19T11:23:25Z</time>
      </trkpt>
      <trkpt lat="43.1386" lon="-1.47622">
        <ele>632.3</ele>
        <time>2022-07-19T11:23:37Z</time>
      </trkpt>
      <trkpt lat="43.13876" lon="-1.47635">
        <ele>633</ele>
        <time>2022-07-19T11:23:49Z</time>
      </trkpt>
      <trkpt lat="43.13892" lon="-1.47651">
        <ele>635.1</ele>
        <time>2022-07-19T11:24:00Z</time>
      </trkpt>
      <trkpt lat="43.13908" lon="-1.47662">
        <ele>634.5</ele>
        <time>2022-07-19T11:24:08Z</time>
      </trkpt>
      <trkpt lat="43.13924" lon="-1.47676">
        <ele>635.8</ele>
        <time>2022-07-19T11:24:16Z</time>
      </trkpt>
      <trkpt lat="43.13938" lon="-1.47696">
        <ele>636.2</ele>
        <time>2022-07-19T11:24:23Z</time>
      </trkpt>
      <trkpt lat="43.1395" lon="-1.4772">
        <ele>635.4</ele>
        <time>2022-07-19T11:24:29Z</time>
      </trkpt>
      <trkpt lat="43.13963" lon="-1.47738">
        <ele>634.5</ele>
        <time>2022-07-19T11:24:33Z</time>
      </trkpt>
      <trkpt lat="43.13976" lon="-1.47762">
        <ele>630.9</ele>
        <time>2022-07-19T11:24:38Z</time>
      </trkpt>
      <trkpt lat="43.13988" lon="-1.47783">
        <ele>629.6</ele>
        <time>2022-07-19T11:24:42Z</time>
      </trkpt>
      <trkpt lat="43.14001" lon="-1.47802">
        <ele>628.6</ele>
        <time>2022-07-19T11:24:47Z</time>
      </trkpt>
      <trkpt lat="43.1402" lon="-1.4782">
        <ele>626.3</ele>
        <time>2022-07-19T11:24:51Z</time>
      </trkpt>
      <trkpt lat="43.1404" lon="-1.47835">
        <ele>624.5</ele>
        <time>2022-07-19T11:24:55Z</time>
      </trkpt>
      <trkpt lat="43.14053" lon="-1.47852">
        <ele>623.5</ele>
        <time>2022-07-19T11:24:58Z</time>
      </trkpt>
      <trkpt lat="43.14068" lon="-1.47871">
        <ele>620.1</ele>
        <time>2022-07-19T11:25:40Z</time>
      </trkpt>
      <trkpt lat="43.14064" lon="-1.47897">
        <ele>615.1</ele>
        <time>2022-07-19T11:25:46Z</time>
      </trkpt>
      <trkpt lat="43.14052" lon="-1.47916">
        <ele>611.1</ele>
        <time>2022-07-19T11:25:51Z</time>
      </trkpt>
      <trkpt lat="43.14055" lon="-1.47948">
        <ele>608.1</ele>
        <time>2022-07-19T11:25:56Z</time>
      </trkpt>
      <trkpt lat="43.14059" lon="-1.47978">
        <ele>607.2</ele>
        <time>2022-07-19T11:26:00Z</time>
      </trkpt>
      <trkpt lat="43.14065" lon="-1.48006">
        <ele>604.6</ele>
        <time>2022-07-19T11:26:04Z</time>
      </trkpt>
      <trkpt lat="43.14078" lon="-1.48035">
        <ele>600.3</ele>
        <time>2022-07-19T11:26:08Z</time>
      </trkpt>
      <trkpt lat="43.14093" lon="-1.48053">
        <ele>596.2</ele>
        <time>2022-07-19T11:26:11Z</time>
      </trkpt>
      <trkpt lat="43.14114" lon="-1.48067">
        <ele>592.9</ele>
        <time>2022-07-19T11:26:14Z</time>
      </trkpt>
      <trkpt lat="43.14134" lon="-1.48078">
        <ele>589.7</ele>
        <time>2022-07-19T11:26:18Z</time>
      </trkpt>
      <trkpt lat="43.14148" lon="-1.48095">
        <ele>585.3</ele>
        <time>2022-07-19T11:26:22Z</time>
      </trkpt>
      <trkpt lat="43.14167" lon="-1.48115">
        <ele>581.2</ele>
        <time>2022-07-19T11:26:26Z</time>
      </trkpt>
      <trkpt lat="43.14184" lon="-1.48136">
        <ele>577.9</ele>
        <time>2022-07-19T11:26:30Z</time>
      </trkpt>
      <trkpt lat="43.14196" lon="-1.48158">
        <ele>575.1</ele>
        <time>2022-07-19T11:26:34Z</time>
      </trkpt>
      <trkpt lat="43.1421" lon="-1.48177">
        <ele>571.5</ele>
        <time>2022-07-19T11:26:39Z</time>
      </trkpt>
      <trkpt lat="43.14226" lon="-1.48199">
        <ele>565.9</ele>
        <time>2022-07-19T11:26:44Z</time>
      </trkpt>
      <trkpt lat="43.14245" lon="-1.48209">
        <ele>562.1</ele>
        <time>2022-07-19T11:26:48Z</time>
      </trkpt>
      <trkpt lat="43.14264" lon="-1.48221">
        <ele>558.8</ele>
        <time>2022-07-19T11:26:53Z</time>
      </trkpt>
      <trkpt lat="43.1428" lon="-1.48238">
        <ele>556.2</ele>
        <time>2022-07-19T11:26:57Z</time>
      </trkpt>
      <trkpt lat="43.14295" lon="-1.48253">
        <ele>553.9</ele>
        <time>2022-07-19T11:27:00Z</time>
      </trkpt>
      <trkpt lat="43.14309" lon="-1.48272">
        <ele>551.1</ele>
        <time>2022-07-19T11:27:03Z</time>
      </trkpt>
      <trkpt lat="43.14323" lon="-1.48295">
        <ele>549.5</ele>
        <time>2022-07-19T11:27:06Z</time>
      </trkpt>
      <trkpt lat="43.14338" lon="-1.48315">
        <ele>546.2</ele>
        <time>2022-07-19T11:27:09Z</time>
      </trkpt>
      <trkpt lat="43.14353" lon="-1.48333">
        <ele>544.3</ele>
        <time>2022-07-19T11:27:12Z</time>
      </trkpt>
      <trkpt lat="43.14362" lon="-1.4836">
        <ele>541.5</ele>
        <time>2022-07-19T11:27:15Z</time>
      </trkpt>
      <trkpt lat="43.14363" lon="-1.48387">
        <ele>539</ele>
        <time>2022-07-19T11:27:18Z</time>
      </trkpt>
      <trkpt lat="43.14362" lon="-1.48417">
        <ele>536.3</ele>
        <time>2022-07-19T11:27:21Z</time>
      </trkpt>
      <trkpt lat="43.14363" lon="-1.48449">
        <ele>535.4</ele>
        <time>2022-07-19T11:27:24Z</time>
      </trkpt>
      <trkpt lat="43.14361" lon="-1.4848">
        <ele>534.6</ele>
        <time>2022-07-19T11:27:28Z</time>
      </trkpt>
      <trkpt lat="43.14355" lon="-1.48508">
        <ele>532.5</ele>
        <time>2022-07-19T11:27:32Z</time>
      </trkpt>
      <trkpt lat="43.14344" lon="-1.48532">
        <ele>529.1</ele>
        <time>2022-07-19T11:29:05Z</time>
      </trkpt>
      <trkpt lat="43.14332" lon="-1.48552">
        <ele>528.5</ele>
        <time>2022-07-19T11:29:10Z</time>
      </trkpt>
      <trkpt lat="43.14323" lon="-1.48573">
        <ele>528.3</ele>
        <time>2022-07-19T11:29:14Z</time>
      </trkpt>
      <trkpt lat="43.14314" lon="-1.48599">
        <ele>527.2</ele>
        <time>2022-07-19T11:29:18Z</time>
      </trkpt>
      <trkpt lat="43.1431" lon="-1.48624">
        <ele>525.4</ele>
        <time>2022-07-19T11:29:21Z</time>
      </trkpt>
      <trkpt lat="43.14306" lon="-1.48651">
        <ele>524.2</ele>
        <time>2022-07-19T11:29:24Z</time>
      </trkpt>
      <trkpt lat="43.14307" lon="-1.4868">
        <ele>522.2</ele>
        <time>2022-07-19T11:29:27Z</time>
      </trkpt>
      <trkpt lat="43.1431" lon="-1.48707">
        <ele>520.6</ele>
        <time>2022-07-19T11:29:30Z</time>
      </trkpt>
      <trkpt lat="43.14312" lon="-1.48732">
        <ele>519.1</ele>
        <time>2022-07-19T11:29:33Z</time>
      </trkpt>
      <trkpt lat="43.14311" lon="-1.48759">
        <ele>517</ele>
        <time>2022-07-19T11:29:36Z</time>
      </trkpt>
      <trkpt lat="43.14311" lon="-1.48788">
        <ele>515.3</ele>
        <time>2022-07-19T11:29:39Z</time>
      </trkpt>
      <trkpt lat="43.14311" lon="-1.48817">
        <ele>513.7</ele>
        <time>2022-07-19T11:29:42Z</time>
      </trkpt>
      <trkpt lat="43.14308" lon="-1.48843">
        <ele>512</ele>
        <time>2022-07-19T11:29:46Z</time>
      </trkpt>
      <trkpt lat="43.14306" lon="-1.48869">
        <ele>509.3</ele>
        <time>2022-07-19T11:29:51Z</time>
      </trkpt>
      <trkpt lat="43.14303" lon="-1.48899">
        <ele>505.6</ele>
        <time>2022-07-19T11:29:56Z</time>
      </trkpt>
      <trkpt lat="43.1431" lon="-1.48929">
        <ele>501.7</ele>
        <time>2022-07-19T11:30:00Z</time>
      </trkpt>
      <trkpt lat="43.1432" lon="-1.4895">
        <ele>499.7</ele>
        <time>2022-07-19T11:30:03Z</time>
      </trkpt>
      <trkpt lat="43.14331" lon="-1.4897">
        <ele>496.5</ele>
        <time>2022-07-19T11:30:07Z</time>
      </trkpt>
      <trkpt lat="43.14342" lon="-1.4899">
        <ele>494.5</ele>
        <time>2022-07-19T11:30:11Z</time>
      </trkpt>
      <trkpt lat="43.14354" lon="-1.4901">
        <ele>494.9</ele>
        <time>2022-07-19T11:30:15Z</time>
      </trkpt>
      <trkpt lat="43.14369" lon="-1.49027">
        <ele>493.5</ele>
        <time>2022-07-19T11:30:18Z</time>
      </trkpt>
      <trkpt lat="43.14385" lon="-1.49046">
        <ele>490.2</ele>
        <time>2022-07-19T11:30:21Z</time>
      </trkpt>
      <trkpt lat="43.14397" lon="-1.49073">
        <ele>485.7</ele>
        <time>2022-07-19T11:30:24Z</time>
      </trkpt>
      <trkpt lat="43.14407" lon="-1.49097">
        <ele>484</ele>
        <time>2022-07-19T11:30:27Z</time>
      </trkpt>
      <trkpt lat="43.14418" lon="-1.49121">
        <ele>483.2</ele>
        <time>2022-07-19T11:30:30Z</time>
      </trkpt>
      <trkpt lat="43.14428" lon="-1.49147">
        <ele>482</ele>
        <time>2022-07-19T11:30:33Z</time>
      </trkpt>
      <trkpt lat="43.14432" lon="-1.49172">
        <ele>479.6</ele>
        <time>2022-07-19T11:30:37Z</time>
      </trkpt>
      <trkpt lat="43.14423" lon="-1.492">
        <ele>475.9</ele>
        <time>2022-07-19T11:30:41Z</time>
      </trkpt>
      <trkpt lat="43.14411" lon="-1.49222">
        <ele>471.1</ele>
        <time>2022-07-19T11:30:45Z</time>
      </trkpt>
      <trkpt lat="43.14404" lon="-1.49245">
        <ele>467.7</ele>
        <time>2022-07-19T11:30:49Z</time>
      </trkpt>
      <trkpt lat="43.14411" lon="-1.4927">
        <ele>461.9</ele>
        <time>2022-07-19T11:30:54Z</time>
      </trkpt>
      <trkpt lat="43.14418" lon="-1.49296">
        <ele>458.7</ele>
        <time>2022-07-19T11:32:25Z</time>
      </trkpt>
      <trkpt lat="43.14426" lon="-1.49322">
        <ele>453.9</ele>
        <time>2022-07-19T11:32:31Z</time>
      </trkpt>
      <trkpt lat="43.14422" lon="-1.4935">
        <ele>452.1</ele>
        <time>2022-07-19T11:32:35Z</time>
      </trkpt>
      <trkpt lat="43.14415" lon="-1.49376">
        <ele>450</ele>
        <time>2022-07-19T11:32:41Z</time>
      </trkpt>
      <trkpt lat="43.14399" lon="-1.4939">
        <ele>445.5</ele>
        <time>2022-07-19T11:32:47Z</time>
      </trkpt>
      <trkpt lat="43.14379" lon="-1.49374">
        <ele>442.8</ele>
        <time>2022-07-19T11:32:51Z</time>
      </trkpt>
      <trkpt lat="43.14364" lon="-1.49357">
        <ele>438.6</ele>
        <time>2022-07-19T11:32:55Z</time>
      </trkpt>
      <trkpt lat="43.14352" lon="-1.49379">
        <ele>426.6</ele>
        <time>2022-07-19T11:33:08Z</time>
      </trkpt>
      <trkpt lat="43.14351" lon="-1.49408">
        <ele>422.6</ele>
        <time>2022-07-19T11:33:12Z</time>
      </trkpt>
      <trkpt lat="43.14341" lon="-1.49435">
        <ele>418.5</ele>
        <time>2022-07-19T11:33:18Z</time>
      </trkpt>
      <trkpt lat="43.14327" lon="-1.49456">
        <ele>414.6</ele>
        <time>2022-07-19T11:33:22Z</time>
      </trkpt>
      <trkpt lat="43.1431" lon="-1.49468">
        <ele>411</ele>
        <time>2022-07-19T11:33:26Z</time>
      </trkpt>
      <trkpt lat="43.14311" lon="-1.49442">
        <ele>408.2</ele>
        <time>2022-07-19T11:33:31Z</time>
      </trkpt>
      <trkpt lat="43.14314" lon="-1.49415">
        <ele>405.8</ele>
        <time>2022-07-19T11:33:35Z</time>
      </trkpt>
      <trkpt lat="43.14295" lon="-1.4942">
        <ele>401.1</ele>
        <time>2022-07-19T11:33:42Z</time>
      </trkpt>
      <trkpt lat="43.14279" lon="-1.49434">
        <ele>394.2</ele>
        <time>2022-07-19T11:34:04Z</time>
      </trkpt>
      <trkpt lat="43.1426" lon="-1.49447">
        <ele>391.5</ele>
        <time>2022-07-19T11:34:08Z</time>
      </trkpt>
      <trkpt lat="43.14243" lon="-1.49464">
        <ele>388.4</ele>
        <time>2022-07-19T11:34:12Z</time>
      </trkpt>
      <trkpt lat="43.14229" lon="-1.49481">
        <ele>385.9</ele>
        <time>2022-07-19T11:34:16Z</time>
      </trkpt>
      <trkpt lat="43.14213" lon="-1.49496">
        <ele>382.9</ele>
        <time>2022-07-19T11:34:21Z</time>
      </trkpt>
      <trkpt lat="43.14199" lon="-1.49514">
        <ele>378.6</ele>
        <time>2022-07-19T11:34:26Z</time>
      </trkpt>
      <trkpt lat="43.14182" lon="-1.49527">
        <ele>377.1</ele>
        <time>2022-07-19T11:34:30Z</time>
      </trkpt>
      <trkpt lat="43.14166" lon="-1.49543">
        <ele>375.9</ele>
        <time>2022-07-19T11:34:35Z</time>
      </trkpt>
      <trkpt lat="43.1415" lon="-1.49556">
        <ele>375.5</ele>
        <time>2022-07-19T11:34:41Z</time>
      </trkpt>
      <trkpt lat="43.1413" lon="-1.49558">
        <ele>371.5</ele>
        <time>2022-07-19T11:34:47Z</time>
      </trkpt>
      <trkpt lat="43.14112" lon="-1.49566">
        <ele>364.1</ele>
        <time>2022-07-19T11:35:30Z</time>
      </trkpt>
      <trkpt lat="43.14096" lon="-1.49579">
        <ele>360.2</ele>
        <time>2022-07-19T11:35:36Z</time>
      </trkpt>
      <trkpt lat="43.14077" lon="-1.49593">
        <ele>358.4</ele>
        <time>2022-07-19T11:35:42Z</time>
      </trkpt>
      <trkpt lat="43.14061" lon="-1.49609">
        <ele>356.8</ele>
        <time>2022-07-19T11:35:47Z</time>
      </trkpt>
      <trkpt lat="43.1405" lon="-1.49632">
        <ele>352.9</ele>
        <time>2022-07-19T11:35:52Z</time>
      </trkpt>
      <trkpt lat="43.14044" lon="-1.49659">
        <ele>348.9</ele>
        <time>2022-07-19T11:35:57Z</time>
      </trkpt>
      <trkpt lat="43.14044" lon="-1.49689">
        <ele>345.8</ele>
        <time>2022-07-19T11:36:01Z</time>
      </trkpt>
      <trkpt lat="43.14045" lon="-1.49716">
        <ele>339.6</ele>
        <time>2022-07-19T11:36:05Z</time>
      </trkpt>
      <trkpt lat="43.14045" lon="-1.49749">
        <ele>337.2</ele>
        <time>2022-07-19T11:36:09Z</time>
      </trkpt>
      <trkpt lat="43.14049" lon="-1.49775">
        <ele>337.9</ele>
        <time>2022-07-19T11:36:13Z</time>
      </trkpt>
      <trkpt lat="43.14048" lon="-1.49801">
        <ele>335.4</ele>
        <time>2022-07-19T11:36:17Z</time>
      </trkpt>
      <trkpt lat="43.14053" lon="-1.49825">
        <ele>333</ele>
        <time>2022-07-19T11:36:21Z</time>
      </trkpt>
      <trkpt lat="43.14064" lon="-1.49848">
        <ele>320.3</ele>
        <time>2022-07-19T11:36:27Z</time>
      </trkpt>
      <trkpt lat="43.14064" lon="-1.49874">
        <ele>313.8</ele>
        <time>2022-07-19T11:36:32Z</time>
      </trkpt>
      <trkpt lat="43.14072" lon="-1.49897">
        <ele>312</ele>
        <time>2022-07-19T11:36:36Z</time>
      </trkpt>
      <trkpt lat="43.14082" lon="-1.49918">
        <ele>308.9</ele>
        <time>2022-07-19T11:36:49Z</time>
      </trkpt>
      <trkpt lat="43.14097" lon="-1.49933">
        <ele>298.7</ele>
        <time>2022-07-19T11:37:22Z</time>
      </trkpt>
      <trkpt lat="43.14112" lon="-1.49958">
        <ele>296</ele>
        <time>2022-07-19T11:37:26Z</time>
      </trkpt>
      <trkpt lat="43.14124" lon="-1.49985">
        <ele>297.1</ele>
        <time>2022-07-19T11:37:29Z</time>
      </trkpt>
      <trkpt lat="43.14134" lon="-1.50008">
        <ele>300</ele>
        <time>2022-07-19T11:37:32Z</time>
      </trkpt>
      <trkpt lat="43.14144" lon="-1.50034">
        <ele>293.6</ele>
        <time>2022-07-19T11:37:36Z</time>
      </trkpt>
      <trkpt lat="43.1414" lon="-1.50064">
        <ele>288.8</ele>
        <time>2022-07-19T11:37:40Z</time>
      </trkpt>
      <trkpt lat="43.14145" lon="-1.50094">
        <ele>286.4</ele>
        <time>2022-07-19T11:37:44Z</time>
      </trkpt>
      <trkpt lat="43.14157" lon="-1.50113">
        <ele>279.9</ele>
        <time>2022-07-19T11:37:48Z</time>
      </trkpt>
      <trkpt lat="43.14146" lon="-1.50134">
        <ele>273.1</ele>
        <time>2022-07-19T11:37:55Z</time>
      </trkpt>
      <trkpt lat="43.14125" lon="-1.50137">
        <ele>271.6</ele>
        <time>2022-07-19T11:38:00Z</time>
      </trkpt>
      <trkpt lat="43.14103" lon="-1.50143">
        <ele>270.7</ele>
        <time>2022-07-19T11:38:05Z</time>
      </trkpt>
      <trkpt lat="43.14085" lon="-1.50131">
        <ele>267.5</ele>
        <time>2022-07-19T11:38:10Z</time>
      </trkpt>
      <trkpt lat="43.1407" lon="-1.50116">
        <ele>266.6</ele>
        <time>2022-07-19T11:38:15Z</time>
      </trkpt>
      <trkpt lat="43.14054" lon="-1.50103">
        <ele>266.8</ele>
        <time>2022-07-19T11:38:20Z</time>
      </trkpt>
      <trkpt lat="43.1404" lon="-1.50083">
        <ele>266.2</ele>
        <time>2022-07-19T11:38:26Z</time>
      </trkpt>
      <trkpt lat="43.14027" lon="-1.50106">
        <ele>260.3</ele>
        <time>2022-07-19T11:38:34Z</time>
      </trkpt>
      <trkpt lat="43.14028" lon="-1.50131">
        <ele>255.9</ele>
        <time>2022-07-19T11:38:51Z</time>
      </trkpt>
      <trkpt lat="43.14037" lon="-1.50155">
        <ele>249.6</ele>
        <time>2022-07-19T11:39:25Z</time>
      </trkpt>
      <trkpt lat="43.1405" lon="-1.50182">
        <ele>246.1</ele>
        <time>2022-07-19T11:39:28Z</time>
      </trkpt>
      <trkpt lat="43.14065" lon="-1.50207">
        <ele>244</ele>
        <time>2022-07-19T11:39:31Z</time>
      </trkpt>
      <trkpt lat="43.14081" lon="-1.50231">
        <ele>239.5</ele>
        <time>2022-07-19T11:39:34Z</time>
      </trkpt>
      <trkpt lat="43.14097" lon="-1.50258">
        <ele>236</ele>
        <time>2022-07-19T11:39:37Z</time>
      </trkpt>
      <trkpt lat="43.14115" lon="-1.50284">
        <ele>233.4</ele>
        <time>2022-07-19T11:39:40Z</time>
      </trkpt>
      <trkpt lat="43.1413" lon="-1.50305">
        <ele>231.6</ele>
        <time>2022-07-19T11:39:43Z</time>
      </trkpt>
      <trkpt lat="43.14149" lon="-1.50316">
        <ele>228.4</ele>
        <time>2022-07-19T11:39:46Z</time>
      </trkpt>
      <trkpt lat="43.1417" lon="-1.50332">
        <ele>224.8</ele>
        <time>2022-07-19T11:39:49Z</time>
      </trkpt>
      <trkpt lat="43.1419" lon="-1.50348">
        <ele>220.3</ele>
        <time>2022-07-19T11:39:52Z</time>
      </trkpt>
      <trkpt lat="43.14206" lon="-1.50364">
        <ele>217.8</ele>
        <time>2022-07-19T11:39:56Z</time>
      </trkpt>
      <trkpt lat="43.1421" lon="-1.5039">
        <ele>216.2</ele>
        <time>2022-07-19T11:40:01Z</time>
      </trkpt>
      <trkpt lat="43.14206" lon="-1.50415">
        <ele>213</ele>
        <time>2022-07-19T11:40:08Z</time>
      </trkpt>
      <trkpt lat="43.142" lon="-1.50439">
        <ele>210.3</ele>
        <time>2022-07-19T11:40:23Z</time>
      </trkpt>
      <trkpt lat="43.14216" lon="-1.50451">
        <ele>208.5</ele>
        <time>2022-07-19T11:40:30Z</time>
      </trkpt>
      <trkpt lat="43.14236" lon="-1.50462">
        <ele>208.1</ele>
        <time>2022-07-19T11:40:35Z</time>
      </trkpt>
      <trkpt lat="43.14253" lon="-1.50476">
        <ele>208.2</ele>
        <time>2022-07-19T11:40:39Z</time>
      </trkpt>
      <trkpt lat="43.14268" lon="-1.50492">
        <ele>205.2</ele>
        <time>2022-07-19T11:40:43Z</time>
      </trkpt>
      <trkpt lat="43.14281" lon="-1.5051">
        <ele>204.6</ele>
        <time>2022-07-19T11:40:48Z</time>
      </trkpt>
      <trkpt lat="43.14296" lon="-1.50529">
        <ele>204.6</ele>
        <time>2022-07-19T11:40:54Z</time>
      </trkpt>
      <trkpt lat="43.14312" lon="-1.50548">
        <ele>204.3</ele>
        <time>2022-07-19T11:41:00Z</time>
      </trkpt>
      <trkpt lat="43.14329" lon="-1.50562">
        <ele>204.1</ele>
        <time>2022-07-19T11:41:06Z</time>
      </trkpt>
      <trkpt lat="43.14351" lon="-1.50568">
        <ele>205.1</ele>
        <time>2022-07-19T11:41:12Z</time>
      </trkpt>
      <trkpt lat="43.1437" lon="-1.50574">
        <ele>204.5</ele>
        <time>2022-07-19T11:41:16Z</time>
      </trkpt>
      <trkpt lat="43.1439" lon="-1.50579">
        <ele>204.3</ele>
        <time>2022-07-19T11:41:22Z</time>
      </trkpt>
      <trkpt lat="43.14408" lon="-1.50586">
        <ele>205.3</ele>
        <time>2022-07-19T11:41:28Z</time>
      </trkpt>
      <trkpt lat="43.14428" lon="-1.50595">
        <ele>203.9</ele>
        <time>2022-07-19T11:41:33Z</time>
      </trkpt>
      <trkpt lat="43.14447" lon="-1.506">
        <ele>202.8</ele>
        <time>2022-07-19T11:41:38Z</time>
      </trkpt>
      <trkpt lat="43.14468" lon="-1.50605">
        <ele>203.5</ele>
        <time>2022-07-19T11:41:43Z</time>
      </trkpt>
      <trkpt lat="43.14486" lon="-1.50613">
        <ele>204.5</ele>
        <time>2022-07-19T11:41:48Z</time>
      </trkpt>
      <trkpt lat="43.14504" lon="-1.50622">
        <ele>204.8</ele>
        <time>2022-07-19T11:41:54Z</time>
      </trkpt>
      <trkpt lat="43.14518" lon="-1.50641">
        <ele>206.6</ele>
        <time>2022-07-19T11:41:59Z</time>
      </trkpt>
      <trkpt lat="43.14532" lon="-1.50657">
        <ele>204.3</ele>
        <time>2022-07-19T11:42:03Z</time>
      </trkpt>
      <trkpt lat="43.14547" lon="-1.50669">
        <ele>201.1</ele>
        <time>2022-07-19T11:42:09Z</time>
      </trkpt>
      <trkpt lat="43.14562" lon="-1.50685">
        <ele>199.6</ele>
        <time>2022-07-19T11:42:14Z</time>
      </trkpt>
      <trkpt lat="43.14581" lon="-1.50694">
        <ele>198.5</ele>
        <time>2022-07-19T11:42:20Z</time>
      </trkpt>
      <trkpt lat="43.14601" lon="-1.50696">
        <ele>198</ele>
        <time>2022-07-19T11:42:27Z</time>
      </trkpt>
      <trkpt lat="43.1462" lon="-1.50694">
        <ele>201</ele>
        <time>2022-07-19T11:42:48Z</time>
      </trkpt>
      <trkpt lat="43.1464" lon="-1.50687">
        <ele>202.2</ele>
        <time>2022-07-19T11:42:57Z</time>
      </trkpt>
      <trkpt lat="43.14644" lon="-1.50663">
        <ele>200.7</ele>
        <time>2022-07-19T11:43:09Z</time>
      </trkpt>
      <trkpt lat="43.14654" lon="-1.50642">
        <ele>198.9</ele>
        <time>2022-07-19T11:43:20Z</time>
      </trkpt>
      <trkpt lat="43.14673" lon="-1.50635">
        <ele>201.1</ele>
        <time>2022-07-19T11:43:27Z</time>
      </trkpt>
      <trkpt lat="43.14691" lon="-1.50629">
        <ele>202.2</ele>
        <time>2022-07-19T11:43:32Z</time>
      </trkpt>
      <trkpt lat="43.14711" lon="-1.5063">
        <ele>200.7</ele>
        <time>2022-07-19T11:43:39Z</time>
      </trkpt>
      <trkpt lat="43.1473" lon="-1.50643">
        <ele>200.7</ele>
        <time>2022-07-19T11:43:45Z</time>
      </trkpt>
      <trkpt lat="43.14749" lon="-1.50652">
        <ele>199.6</ele>
        <time>2022-07-19T11:43:51Z</time>
      </trkpt>
      <trkpt lat="43.14753" lon="-1.50681">
        <ele>197.3</ele>
        <time>2022-07-19T11:43:57Z</time>
      </trkpt>
      <trkpt lat="43.14749" lon="-1.5071">
        <ele>197.3</ele>
        <time>2022-07-19T11:44:02Z</time>
      </trkpt>
      <trkpt lat="43.14747" lon="-1.50739">
        <ele>199</ele>
        <time>2022-07-19T11:44:07Z</time>
      </trkpt>
      <trkpt lat="43.14747" lon="-1.5077">
        <ele>196.9</ele>
        <time>2022-07-19T11:44:11Z</time>
      </trkpt>
      <trkpt lat="43.14749" lon="-1.50801">
        <ele>195.3</ele>
        <time>2022-07-19T11:44:15Z</time>
      </trkpt>
      <trkpt lat="43.14759" lon="-1.50828">
        <ele>195.2</ele>
        <time>2022-07-19T11:44:19Z</time>
      </trkpt>
      <trkpt lat="43.14773" lon="-1.50847">
        <ele>196.3</ele>
        <time>2022-07-19T11:44:23Z</time>
      </trkpt>
      <trkpt lat="43.14785" lon="-1.50866">
        <ele>196.9</ele>
        <time>2022-07-19T11:44:29Z</time>
      </trkpt>
      <trkpt lat="43.14789" lon="-1.50894">
        <ele>194.3</ele>
        <time>2022-07-19T11:44:34Z</time>
      </trkpt>
      <trkpt lat="43.14793" lon="-1.50919">
        <ele>193.2</ele>
        <time>2022-07-19T11:44:38Z</time>
      </trkpt>
      <trkpt lat="43.148" lon="-1.50946">
        <ele>193</ele>
        <time>2022-07-19T11:44:42Z</time>
      </trkpt>
      <trkpt lat="43.14813" lon="-1.50969">
        <ele>192.9</ele>
        <time>2022-07-19T11:44:46Z</time>
      </trkpt>
      <trkpt lat="43.14827" lon="-1.50991">
        <ele>192.5</ele>
        <time>2022-07-19T11:44:50Z</time>
      </trkpt>
      <trkpt lat="43.14839" lon="-1.51016">
        <ele>192.2</ele>
        <time>2022-07-19T11:44:54Z</time>
      </trkpt>
      <trkpt lat="43.14852" lon="-1.51042">
        <ele>191.5</ele>
        <time>2022-07-19T11:44:58Z</time>
      </trkpt>
      <trkpt lat="43.14865" lon="-1.51067">
        <ele>190.9</ele>
        <time>2022-07-19T11:45:02Z</time>
      </trkpt>
      <trkpt lat="43.14877" lon="-1.51092">
        <ele>191.8</ele>
        <time>2022-07-19T11:45:06Z</time>
      </trkpt>
      <trkpt lat="43.14891" lon="-1.51117">
        <ele>192.1</ele>
        <time>2022-07-19T11:45:10Z</time>
      </trkpt>
      <trkpt lat="43.14903" lon="-1.51139">
        <ele>192.2</ele>
        <time>2022-07-19T11:45:14Z</time>
      </trkpt>
      <trkpt lat="43.14914" lon="-1.5116">
        <ele>192.3</ele>
        <time>2022-07-19T11:45:18Z</time>
      </trkpt>
      <trkpt lat="43.14925" lon="-1.51181">
        <ele>192.2</ele>
        <time>2022-07-19T11:45:23Z</time>
      </trkpt>
      <trkpt lat="43.1493" lon="-1.51208">
        <ele>191.2</ele>
        <time>2022-07-19T11:45:30Z</time>
      </trkpt>
      <trkpt lat="43.14933" lon="-1.51236">
        <ele>191.3</ele>
        <time>2022-07-19T11:45:35Z</time>
      </trkpt>
      <trkpt lat="43.14933" lon="-1.51262">
        <ele>190.8</ele>
        <time>2022-07-19T11:45:39Z</time>
      </trkpt>
      <trkpt lat="43.14933" lon="-1.51292">
        <ele>189.3</ele>
        <time>2022-07-19T11:45:43Z</time>
      </trkpt>
      <trkpt lat="43.14935" lon="-1.51322">
        <ele>188.8</ele>
        <time>2022-07-19T11:45:47Z</time>
      </trkpt>
      <trkpt lat="43.14939" lon="-1.51351">
        <ele>188.7</ele>
        <time>2022-07-19T11:45:51Z</time>
      </trkpt>
      <trkpt lat="43.1494" lon="-1.51381">
        <ele>186.1</ele>
        <time>2022-07-19T11:45:55Z</time>
      </trkpt>
      <trkpt lat="43.14942" lon="-1.51411">
        <ele>186.1</ele>
        <time>2022-07-19T11:45:59Z</time>
      </trkpt>
      <trkpt lat="43.14947" lon="-1.51441">
        <ele>185.4</ele>
        <time>2022-07-19T11:46:03Z</time>
      </trkpt>
      <trkpt lat="43.14948" lon="-1.51473">
        <ele>185.1</ele>
        <time>2022-07-19T11:46:07Z</time>
      </trkpt>
      <trkpt lat="43.14946" lon="-1.51497">
        <ele>185.6</ele>
        <time>2022-07-19T11:46:10Z</time>
      </trkpt>
      <trkpt lat="43.14943" lon="-1.51529">
        <ele>186</ele>
        <time>2022-07-19T11:46:14Z</time>
      </trkpt>
      <trkpt lat="43.14938" lon="-1.51553">
        <ele>186</ele>
        <time>2022-07-19T11:46:17Z</time>
      </trkpt>
      <trkpt lat="43.14924" lon="-1.51579">
        <ele>185.8</ele>
        <time>2022-07-19T11:46:21Z</time>
      </trkpt>
      <trkpt lat="43.14907" lon="-1.516">
        <ele>186.6</ele>
        <time>2022-07-19T11:46:25Z</time>
      </trkpt>
      <trkpt lat="43.14891" lon="-1.51616">
        <ele>187.3</ele>
        <time>2022-07-19T11:46:29Z</time>
      </trkpt>
      <trkpt lat="43.14872" lon="-1.51631">
        <ele>188.1</ele>
        <time>2022-07-19T11:46:34Z</time>
      </trkpt>
      <trkpt lat="43.14854" lon="-1.51647">
        <ele>188.3</ele>
        <time>2022-07-19T11:46:39Z</time>
      </trkpt>
      <trkpt lat="43.14837" lon="-1.5166">
        <ele>188.6</ele>
        <time>2022-07-19T11:46:43Z</time>
      </trkpt>
      <trkpt lat="43.14818" lon="-1.51667">
        <ele>188.7</ele>
        <time>2022-07-19T11:46:48Z</time>
      </trkpt>
      <trkpt lat="43.14799" lon="-1.51664">
        <ele>189.7</ele>
        <time>2022-07-19T11:46:54Z</time>
      </trkpt>
      <trkpt lat="43.14778" lon="-1.51662">
        <ele>188.7</ele>
        <time>2022-07-19T11:46:59Z</time>
      </trkpt>
      <trkpt lat="43.14759" lon="-1.51665">
        <ele>188.7</ele>
        <time>2022-07-19T11:47:03Z</time>
      </trkpt>
      <trkpt lat="43.14741" lon="-1.51672">
        <ele>186</ele>
        <time>2022-07-19T11:47:07Z</time>
      </trkpt>
      <trkpt lat="43.14722" lon="-1.51671">
        <ele>184</ele>
        <time>2022-07-19T11:47:13Z</time>
      </trkpt>
      <trkpt lat="43.14705" lon="-1.51682">
        <ele>183.8</ele>
        <time>2022-07-19T11:47:21Z</time>
      </trkpt>
    </trkseg>
  </trk>
</gpx>